Flight Track Log - Related Links

Times and Time Zones

All times are in EDT time to prevent confusion due to time zone crossing. See the DAL268 flight status page for this flight to view local times or setup timezone preferences in your user account.

Time Position Orientation Groundspeed Altitude Reporting Facility
EDT Latitude Longitude Course Direction KTS MPH feet Rate Location/Type
Tue 11:58:38 PM 40.6370 -73.7800 North  Level FlightAware ADS-B
Wed 12:05:00 AM 40.8774 -73.5559 37° Northeast  Level FlightAware Approximate
Wed 12:06:00 AM 40.9844 -73.4529 30° Northeast  Level FlightAware Approximate
Wed 12:07:00 AM 41.1029 -73.3607 30° Northeast  Level FlightAware Approximate
Wed 12:08:00 AM 41.2188 -73.2651 29° Northeast  Level FlightAware Approximate
Wed 12:09:00 AM 41.3289 -73.1605 21° North  Level FlightAware Approximate
Wed 12:17:44 AM 40.6300 -73.7790 33° Northeast 120 138  Level FlightAware ADS-B
Wed 12:18:04 AM 40.6430 -73.7690 30° Northeast 180 207 100 938 Climbing FlightAware ADS-B
Wed 12:18:16 AM 40.6520 -73.7630 27° Northeast 181 208 500 1,935 Climbing FlightAware ADS-B
Wed 12:18:35 AM 40.6650 -73.7510 35° Northeast 187 215 1,100 1,929 Climbing FlightAware ADS-B
Wed 12:18:44 AM 40.6690 -73.7420 60° Northeast 188 216 1,400 1,765 Climbing FlightAware ADS-B
Wed 12:18:52 AM 40.6700 -73.7330 82° East 194 223 1,600 1,241 Climbing FlightAware ADS-B
Wed 12:19:13 AM 40.6720 -73.7060 84° East 216 249 2,000 1,171 Climbing FlightAware ADS-B
Wed 12:19:33 AM 40.6730 -73.6760 87° East 246 283 2,400 1,200 Climbing FlightAware ADS-B
Wed 12:19:53 AM 40.6740 -73.6450 88° East 259 298 2,800 1,227 Climbing FlightAware ADS-B
Wed 12:20:17 AM 40.6750 -73.6050 88° East 282 325 3,300 1,636 Climbing FlightAware ADS-B
Wed 12:20:37 AM 40.6760 -73.5720 88° East 288 331 4,000 2,143 Climbing FlightAware ADS-B
Wed 12:20:45 AM 40.6790 -73.5570 75° East 292 336 4,300 1,800 Climbing FlightAware ADS-B
Wed 12:20:57 AM 40.6860 -73.5370 65° Northeast 298 343 4,600 1,667 Climbing FlightAware ADS-B
Wed 12:21:03 AM 40.6910 -73.5280 54° Northeast 300 345 4,800 2,250 Climbing FlightAware ADS-B
Wed 12:21:13 AM 40.7000 -73.5140 50° Northeast 301 346 5,200 2,333 Climbing FlightAware ADS-B
Wed 12:21:21 AM 40.7100 -73.5060 31° Northeast 301 346 5,500 2,100 Climbing FlightAware ADS-B
Wed 12:21:33 AM 40.7240 -73.4970 26° Northeast 304 350 5,900 2,813 Climbing FlightAware ADS-B
Wed 12:21:53 AM 40.7520 -73.4860 17° North 300 345 7,000 3,000 Climbing FlightAware ADS-B
Wed 12:22:11 AM 40.7760 -73.4780 14° North 301 346 7,800 2,455 Climbing FlightAware ADS-B
Wed 12:22:37 AM 40.8100 -73.4610 21° North 307 353 8,800 2,368 Climbing FlightAware ADS-B
Wed 12:22:49 AM 40.8260 -73.4520 23° Northeast 310 357 9,300 2,375 Climbing FlightAware ADS-B
Wed 12:23:25 AM 40.8740 -73.4240 24° Northeast 318 366 10,700 1,800 Climbing FlightAware ADS-B
Wed 12:23:59 AM 40.9230 -73.3970 23° Northeast 345 397 11,400 1,286 Climbing FlightAware ADS-B
Wed 12:24:35 AM 40.9790 -73.3660 23° Northeast 373 429 12,200 1,200 Climbing FlightAware ADS-B
Wed 12:25:09 AM 41.0340 -73.3350 23° Northeast 399 459 12,800 1,545 Climbing FlightAware ADS-B
Wed 12:25:41 AM 41.0900 -73.3030 23° Northeast 410 472 13,900 1,859 Climbing FlightAware ADS-B
Wed 12:26:20 AM 41.1550 -73.2670 23° Northeast 421 484 15,000 1,840 Climbing FlightAware ADS-B
Wed 12:26:56 AM 41.2230 -73.2290 23° Northeast 430 495 16,200 1,833 Climbing FlightAware ADS-B
Wed 12:27:32 AM 41.2910 -73.1900 23° Northeast 439 505 17,200 1,739 Climbing FlightAware ADS-B
Wed 12:28:05 AM 41.3530 -73.1530 24° Northeast 449 517 18,200 1,778 Climbing FlightAware ADS-B
Wed 12:28:26 AM 41.3890 -73.1150 38° Northeast 457 526 18,800 1,684 Climbing FlightAware ADS-B
Wed 12:29:02 AM 41.4300 -73.0300 57° Northeast 464 534 19,800 1,565 Climbing FlightAware ADS-B
Wed 12:29:35 AM 41.4660 -72.9500 59° Northeast 470 541 20,600 1,588 Climbing FlightAware ADS-B
Wed 12:30:10 AM 41.5050 -72.8620 59° Northeast 474 545 21,600 1,629 Climbing FlightAware ADS-B
Wed 12:30:45 AM 41.5440 -72.7700 60° Northeast 481 554 22,500 1,343 Climbing FlightAware ADS-B
Wed 12:31:17 AM 41.5800 -72.6900 59° Northeast 486 559 23,100 740 Climbing FlightAware ADS-B
Wed 12:31:58 AM 41.6220 -72.5930 60° Northeast 489 563 23,400 234 Climbing FlightAware ADS-B
Wed 12:32:34 AM 41.6580 -72.5140 59° Northeast 489 563 23,400 1,622 Level FlightAware ADS-B
Wed 12:33:12 AM 41.7260 -72.4000 51° Northeast 505 581 25,400 2,189 Climbing FlightAware ADS-B
Wed 12:33:48 AM 41.7780 -72.3060 53° Northeast 509 586 26,100 1,167 Climbing FlightAware ADS-B
Wed 12:34:24 AM 41.8270 -72.2140 54° Northeast 515 593 26,800 1,059 Climbing FlightAware ADS-B
Wed 12:34:56 AM 41.8710 -72.1310 55° Northeast 518 596 27,300 1,235 Climbing FlightAware ADS-B
Wed 12:35:32 AM 41.9230 -72.0340 54° Northeast 514 592 28,200 1,622 Climbing FlightAware ADS-B
Wed 12:36:10 AM 41.9760 -71.9360 54° Northeast 508 585 29,300 1,545 Climbing FlightAware ADS-B
Wed 12:36:38 AM 42.0130 -71.8670 54° Northeast 505 581 29,900 1,355 Climbing FlightAware ADS-B
Wed 12:37:12 AM 42.0600 -71.7780 55° Northeast 501 577 30,700 882 Climbing FlightAware ADS-B
Wed 12:37:46 AM 42.1040 -71.6940 55° Northeast 501 577 30,900 171 Climbing FlightAware ADS-B
Wed 12:38:22 AM 42.1530 -71.6020 54° Northeast 501 577 30,900  Level FlightAware ADS-B
Wed 12:38:55 AM 42.1950 -71.5210 55° Northeast 501 577 30,900  Level FlightAware ADS-B
Wed 12:39:30 AM 42.2440 -71.4290 54° Northeast 500 575 30,900  Level FlightAware ADS-B
Wed 12:40:08 AM 42.2940 -71.3320 55° Northeast 500 575 30,900  Level FlightAware ADS-B
Wed 12:40:38 AM 42.3360 -71.2520 55° Northeast 502 578 30,900  Level FlightAware ADS-B
Wed 12:41:18 AM 42.3870 -71.1520 55° Northeast 504 580 30,900  Level FlightAware ADS-B
Wed 12:41:54 AM 42.4340 -71.0620 55° Northeast 504 580 30,900  Level FlightAware ADS-B
Wed 12:42:26 AM 42.4790 -70.9760 55° Northeast 504 580 30,900  Level FlightAware ADS-B
Wed 12:43:02 AM 42.5280 -70.8800 55° Northeast 505 581 30,900  Level FlightAware ADS-B
Wed 12:43:34 AM 42.5700 -70.7990 55° Northeast 505 581 30,900  Level FlightAware ADS-B
Wed 12:44:12 AM 42.6210 -70.7010 55° Northeast 505 581 30,900  Level FlightAware ADS-B
Wed 12:44:48 AM 42.6690 -70.6040 56° Northeast 505 581 30,900  Level FlightAware ADS-B
Wed 12:45:20 AM 42.7100 -70.5230 55° Northeast 506 582 30,900  Level FlightAware ADS-B
Wed 12:45:56 AM 42.7590 -70.4260 55° Northeast 505 581 30,900  Level FlightAware ADS-B
Wed 12:46:36 AM 42.8100 -70.3270 55° Northeast 505 581 30,900  Level FlightAware ADS-B
Wed 12:47:13 AM 42.8590 -70.2300 55° Northeast 500 575 30,900  Level FlightAware ADS-B
Wed 12:47:48 AM 42.9050 -70.1380 56° Northeast 500 575 30,900  Level FlightAware ADS-B
Wed 12:48:23 AM 42.9510 -70.0460 56° Northeast 500 575 30,900  Level FlightAware ADS-B
Wed 12:48:58 AM 42.9980 -69.9510 56° Northeast 500 575 30,900  Level FlightAware ADS-B
Wed 12:49:33 AM 43.0420 -69.8610 56° Northeast 501 577 30,900  Level FlightAware ADS-B
Wed 12:50:12 AM 43.0930 -69.7610 55° Northeast 502 578 30,900  Level FlightAware ADS-B
Wed 12:50:47 AM 43.1410 -69.6630 56° Northeast 502 578 30,900  Level FlightAware ADS-B
Wed 12:51:33 AM 43.1920 -69.5590 56° Northeast 502 578 30,900  Level FlightAware ADS-B
Wed 12:52:07 AM 43.2430 -69.4550 56° Northeast 503 579 30,900  Level FlightAware ADS-B
Wed 12:52:49 AM 43.2920 -69.3560 56° Northeast 503 579 30,900  Level FlightAware ADS-B
Wed 12:53:27 AM 43.3340 -69.2700 56° Northeast 503 579 30,900  Level FlightAware ADS-B
Wed 12:54:03 AM 43.3740 -69.1890 56° Northeast 503 579 30,900  Level FlightAware ADS-B
Wed 12:54:39 AM 43.4140 -69.1070 56° Northeast 503 579 30,900  Level FlightAware ADS-B
Wed 12:55:15 AM 43.4540 -69.0260 56° Northeast 503 579 30,900  Level FlightAware ADS-B
Wed 12:55:51 AM 43.4940 -68.9450 56° Northeast 503 579 30,900  Level FlightAware ADS-B
Wed 12:56:27 AM 43.5340 -68.8630 56° Northeast 503 579 30,900  Level FlightAware ADS-B
Wed 12:57:03 AM 43.5730 -68.7820 56° Northeast 503 579 30,900  Level FlightAware ADS-B
Wed 12:57:39 AM 43.6130 -68.7000 56° Northeast 503 579 30,900  Level FlightAware ADS-B
Wed 12:58:16 AM 43.6540 -68.6160 56° Northeast 503 579 30,900  Level FlightAware ADS-B
Wed 12:58:52 AM 43.6940 -68.5350 56° Northeast 503 579 30,900  Level FlightAware ADS-B
Wed 12:59:28 AM 43.7340 -68.4530 56° Northeast 503 579 30,900  Level FlightAware ADS-B
Wed 01:00:05 AM 43.7750 -68.3690 56° Northeast 503 579 30,900  Level FlightAware ADS-B
Wed 01:00:41 AM 43.8140 -68.2870 57° Northeast 503 579 30,900  Level FlightAware ADS-B
Wed 01:01:10 AM 43.9460 -67.9840 59° Northeast 511 588 30,900  Level FlightAware ADS-B
Wed 01:01:49 AM 43.9960 -67.8770 57° Northeast 511 588 30,900  Level FlightAware ADS-B
Wed 01:02:26 AM 44.0420 -67.7770 57° Northeast 512 589 30,900  Level FlightAware ADS-B
Wed 01:03:04 AM 44.0930 -67.6660 57° Northeast 514 592 30,900  Level FlightAware ADS-B
Wed 01:03:40 AM 44.1380 -67.5690 57° Northeast 514 592 30,900  Level FlightAware ADS-B
Wed 01:04:14 AM 44.1820 -67.4710 58° Northeast 513 590 30,900  Level FlightAware ADS-B
Wed 01:04:50 AM 44.2270 -67.3740 57° Northeast 512 589 30,900  Level FlightAware ADS-B
Wed 01:05:25 AM 44.2710 -67.2760 58° Northeast 511 588 30,900  Level FlightAware ADS-B
Wed 01:06:00 AM 44.3180 -67.1760 57° Northeast 512 589 30,900  Level FlightAware ADS-B
Wed 01:06:39 AM 44.3660 -67.0670 58° Northeast 512 589 30,900  Level FlightAware ADS-B
Wed 01:07:11 AM 44.4050 -66.9830 57° Northeast 514 592 30,900  Level FlightAware ADS-B
Wed 01:07:45 AM 44.4490 -66.8840 58° Northeast 514 592 30,900  Level FlightAware ADS-B
Wed 01:08:20 AM 44.4930 -66.7850 58° Northeast 515 593 30,900  Level FlightAware ADS-B
Wed 01:08:55 AM 44.5370 -66.6860 58° Northeast 516 594 30,900  Level FlightAware ADS-B
Wed 01:09:30 AM 44.5810 -66.5870 58° Northeast 516 594 30,900  Level FlightAware ADS-B
Wed 01:10:04 AM 44.6240 -66.4910 58° Northeast 515 593 30,900  Level FlightAware ADS-B
Wed 01:10:40 AM 44.6690 -66.3880 58° Northeast 515 593 30,900  Level FlightAware ADS-B
Wed 01:11:20 AM 44.7130 -66.2880 58° Northeast 517 595 30,900  Level FlightAware ADS-B
Wed 01:11:55 AM 44.7640 -66.1740 58° Northeast 517 595 30,900  Level FlightAware ADS-B
Wed 01:12:29 AM 44.8070 -66.0740 59° Northeast 513 590 30,900  Level FlightAware ADS-B
Wed 01:13:05 AM 44.8510 -65.9730 58° Northeast 513 590 30,900  Level FlightAware ADS-B
Wed 01:13:39 AM 44.8940 -65.8750 58° Northeast 512 589 30,900  Level FlightAware ADS-B
Wed 01:14:20 AM 44.9440 -65.7580 59° Northeast 512 589 30,900  Level FlightAware ADS-B
Wed 01:14:54 AM 44.9870 -65.6600 58° Northeast 512 589 30,900  Level FlightAware ADS-B
Wed 01:15:30 AM 45.0310 -65.5560 59° Northeast 512 589 30,900  Level FlightAware ADS-B
Wed 01:16:04 AM 45.0730 -65.4580 59° Northeast 512 589 30,900  Level FlightAware ADS-B
Wed 01:16:40 AM 45.1170 -65.3530 59° Northeast 513 590 30,900  Level FlightAware ADS-B
Wed 01:17:15 AM 45.1610 -65.2520 58° Northeast 513 590 30,900  Level FlightAware ADS-B
Wed 01:17:51 AM 45.2040 -65.1470 60° Northeast 515 593 30,900  Level FlightAware ADS-B
Wed 01:18:27 AM 45.2410 -65.0560 60° Northeast 515 593 30,900  Level FlightAware ADS-B
Wed 01:19:03 AM 45.2780 -64.9660 60° Northeast 515 593 30,900  Level FlightAware ADS-B
Wed 01:19:41 AM 45.3160 -64.8720 60° Northeast 515 593 30,900  Level FlightAware ADS-B
Wed 01:20:17 AM 45.3530 -64.7820 60° Northeast 515 593 30,900  Level FlightAware ADS-B
Wed 01:20:53 AM 45.3890 -64.6920 60° Northeast 515 593 30,900  Level FlightAware ADS-B
Wed 01:21:30 AM 45.4270 -64.5990 60° Northeast 515 593 30,900  Level FlightAware ADS-B
Wed 01:22:07 AM 45.4640 -64.5070 60° Northeast 515 593 30,900  Level FlightAware ADS-B
Wed 01:22:43 AM 45.5010 -64.4170 60° Northeast 515 593 30,900  Level FlightAware ADS-B
Wed 01:23:19 AM 45.5370 -64.3270 60° Northeast 515 593 30,900  Level FlightAware ADS-B
Wed 01:23:55 AM 45.5730 -64.2360 61° Northeast 515 593 30,900  Level FlightAware ADS-B
Wed 01:24:32 AM 45.6110 -64.1440 59° Northeast 515 593 30,900  Level FlightAware ADS-B
Wed 01:25:08 AM 45.6470 -64.0530 60° Northeast 515 593 30,900  Level FlightAware ADS-B
Wed 01:25:44 AM 45.6840 -63.9630 60° Northeast 515 593 30,900  Level FlightAware ADS-B
Wed 01:26:20 AM 45.7200 -63.8730 60° Northeast 515 593 30,900  Level FlightAware ADS-B
Wed 01:26:56 AM 45.7570 -63.7820 60° Northeast 515 593 30,900  Level FlightAware ADS-B
Wed 01:27:32 AM 45.7930 -63.6920 60° Northeast 515 593 30,900  Level FlightAware ADS-B
Wed 01:30:55 AM 46.1590 -62.7860 60° Northeast 528 608 30,900  Level FlightAware ADS-B
Wed 01:31:31 AM 46.2030 -62.6720 61° Northeast 528 608 30,900  Level FlightAware ADS-B
Wed 01:32:07 AM 46.2450 -62.5640 61° Northeast 527 606 30,900  Level FlightAware ADS-B
Wed 01:32:39 AM 46.2830 -62.4630 61° Northeast 527 606 30,900  Level FlightAware ADS-B
Wed 01:33:15 AM 46.3260 -62.3520 61° Northeast 528 608 30,900  Level FlightAware ADS-B
Wed 01:33:53 AM 46.3700 -62.2370 61° Northeast 528 608 30,900  Level FlightAware ADS-B
Wed 01:34:25 AM 46.4070 -62.1380 62° Northeast 528 608 30,900  Level FlightAware ADS-B
Wed 01:35:01 AM 46.4500 -62.0230 61° Northeast 528 608 30,900  Level FlightAware ADS-B
Wed 01:35:37 AM 46.4920 -61.9150 61° Northeast 528 608 30,900  Level FlightAware ADS-B
Wed 01:36:13 AM 46.5350 -61.7990 62° Northeast 528 608 30,900  Level FlightAware ADS-B
Wed 01:36:45 AM 46.5710 -61.7020 62° Northeast 529 609 30,900  Level FlightAware ADS-B
Wed 01:37:21 AM 46.6130 -61.5870 62° Northeast 530 610 30,900  Level FlightAware ADS-B
Wed 01:37:57 AM 46.6550 -61.4730 62° Northeast 531 611 30,900  Level FlightAware ADS-B
Wed 01:38:29 AM 46.6910 -61.3760 62° Northeast 531 611 30,900  Level FlightAware ADS-B
Wed 01:39:05 AM 46.7340 -61.2590 62° Northeast 532 612 30,900  Level FlightAware ADS-B
Wed 01:39:43 AM 46.7780 -61.1420 61° Northeast 532 612 30,900  Level FlightAware ADS-B
Wed 01:40:13 AM 46.8120 -61.0440 63° Northeast 532 612 30,900  Level FlightAware ADS-B
Wed 01:40:51 AM 46.8570 -60.9230 61° Northeast 532 612 30,900  Level FlightAware ADS-B
Wed 01:41:27 AM 46.8970 -60.8110 62° Northeast 532 612 30,900  Level FlightAware ADS-B
Wed 01:42:01 AM 46.9350 -60.7030 63° Northeast 532 612 30,900  Level FlightAware ADS-B
Wed 01:42:34 AM 46.9730 -60.5980 62° Northeast 532 612 30,900  Level FlightAware ADS-B
Wed 01:43:19 AM 47.0250 -60.4540 62° Northeast 532 612 30,900  Level FlightAware ADS-B
Wed 01:43:53 AM 47.0620 -60.3460 63° Northeast 532 612 30,900  Level FlightAware ADS-B
Wed 01:44:29 AM 47.1050 -60.2270 62° Northeast 532 612 30,900  Level FlightAware ADS-B
Wed 01:45:03 AM 47.1420 -60.1210 63° Northeast 532 612 30,900  Level FlightAware ADS-B
Wed 01:45:41 AM 47.1860 -59.9960 63° Northeast 532 612 30,900  Level FlightAware ADS-B
Wed 01:46:16 AM 47.2230 -59.8890 63° Northeast 532 612 30,900  Level FlightAware ADS-B
Wed 01:46:55 AM 47.2610 -59.7830 62° Northeast 532 612 30,900  Level FlightAware ADS-B
Wed 01:47:47 AM 47.3200 -59.6090 63° Northeast 533 613 30,900  Level FlightAware ADS-B
Wed 01:48:23 AM 47.3540 -59.5100 63° Northeast 533 613 30,900  Level FlightAware ADS-B
Wed 01:48:59 AM 47.3880 -59.4100 63° Northeast 533 613 30,900  Level FlightAware ADS-B
Wed 01:49:35 AM 47.4230 -59.3110 62° Northeast 533 613 30,900  Level FlightAware ADS-B
Wed 01:50:11 AM 47.4570 -59.2120 63° Northeast 533 613 30,900  Level FlightAware ADS-B
Wed 01:50:47 AM 47.4910 -59.1120 63° Northeast 533 613 30,900  Level FlightAware ADS-B
Wed 01:51:24 AM 47.5260 -59.0100 63° Northeast 533 613 30,900  Level FlightAware ADS-B
Wed 01:51:52 AM 47.5920 -58.8040 65° Northeast 528 608 30,900  Level FlightAware ADS-B
Wed 01:52:31 AM 47.6370 -58.6690 64° Northeast 524 603 30,900  Level FlightAware ADS-B
Wed 01:53:02 AM 47.6690 -58.5720 64° Northeast 523 602 30,900  Level FlightAware ADS-B
Wed 01:53:42 AM 47.7120 -58.4430 64° Northeast 522 601 30,900  Level FlightAware ADS-B
Wed 01:54:17 AM 47.7480 -58.3330 64° Northeast 522 601 30,900  Level FlightAware ADS-B
Wed 01:54:52 AM 47.7830 -58.2240 64° Northeast 522 601 30,900  Level FlightAware ADS-B
Wed 01:55:27 AM 47.8220 -58.1040 64° Northeast 522 601 30,900  Level FlightAware ADS-B
Wed 01:56:01 AM 47.8560 -58.0010 64° Northeast 521 600 30,900  Level FlightAware ADS-B
Wed 01:56:36 AM 47.8950 -57.8780 65° Northeast 520 598 30,900  Level FlightAware ADS-B
Wed 01:57:11 AM 47.9270 -57.7780 64° Northeast 519 597 30,900  Level FlightAware ADS-B
Wed 01:57:47 AM 47.9670 -57.6550 64° Northeast 519 597 30,900  Level FlightAware ADS-B
Wed 01:58:22 AM 48.0020 -57.5450 65° Northeast 519 597 30,900  Level FlightAware ADS-B
Wed 01:58:57 AM 48.0390 -57.4250 65° Northeast 520 598 30,900  Level FlightAware ADS-B
Wed 01:59:31 AM 48.0730 -57.3110 66° East 519 597 30,900  Level FlightAware ADS-B
Wed 02:00:07 AM 48.1080 -57.2000 65° Northeast 519 597 30,900  Level FlightAware ADS-B
Wed 02:00:42 AM 48.1410 -57.0890 66° East 519 597 30,900  Level FlightAware ADS-B
Wed 02:01:17 AM 48.1780 -56.9680 65° Northeast 518 596 30,900  Level FlightAware ADS-B
Wed 02:01:52 AM 48.2120 -56.8570 65° Northeast 518 596 30,900  Level FlightAware ADS-B
Wed 02:02:27 AM 48.2460 -56.7420 66° East 517 595 30,900  Level FlightAware ADS-B
Wed 02:03:02 AM 48.2800 -56.6270 66° East 517 595 30,900  Level FlightAware ADS-B
Wed 02:03:38 AM 48.3150 -56.5090 66° East 517 595 30,900  Level FlightAware ADS-B
Wed 02:04:16 AM 48.3540 -56.3780 66° East 517 595 30,900  Level FlightAware ADS-B
Wed 02:04:52 AM 48.3880 -56.2630 66° East 518 596 30,900  Level FlightAware ADS-B
Wed 02:05:32 AM 48.4260 -56.1320 66° East 518 596 30,900  Level FlightAware ADS-B
Wed 02:06:02 AM 48.4550 -56.0360 65° Northeast 517 595 30,900  Level FlightAware ADS-B
Wed 02:06:37 AM 48.4880 -55.9210 67° East 517 595 30,900  Level FlightAware ADS-B
Wed 02:07:16 AM 48.5270 -55.7850 67° East 518 596 30,900  Level FlightAware ADS-B
Wed 02:07:47 AM 48.5550 -55.6860 67° East 519 597 30,900  Level FlightAware ADS-B
Wed 02:08:22 AM 48.5880 -55.5730 66° East 520 598 30,900  Level FlightAware ADS-B
Wed 02:08:57 AM 48.6220 -55.4530 67° East 520 598 30,900  Level FlightAware ADS-B
Wed 02:09:37 AM 48.6600 -55.3190 67° East 519 597 30,900  Level FlightAware ADS-B
Wed 02:10:12 AM 48.6930 -55.2020 67° East 518 596 30,900  Level FlightAware ADS-B
Wed 02:10:42 AM 48.7210 -55.1020 67° East 518 596 30,900  Level FlightAware ADS-B
Wed 02:11:17 AM 48.7520 -54.9890 67° East 518 596 30,900  Level FlightAware ADS-B
Wed 02:11:57 AM 48.7910 -54.8510 67° East 520 598 30,900  Level FlightAware ADS-B
Wed 02:12:32 AM 48.8230 -54.7370 67° East 520 598 30,900  Level FlightAware ADS-B
Wed 02:13:17 AM 48.8650 -54.5810 68° East 521 600 30,900  Level FlightAware ADS-B
Wed 02:13:52 AM 48.8970 -54.4630 68° East 523 602 30,900 81 Level FlightAware ADS-B
Wed 02:14:31 AM 48.9340 -54.3270 67° East 525 604 31,000 486 Climbing FlightAware ADS-B
Wed 02:15:06 AM 48.9670 -54.2070 67° East 530 610 31,500 1,000 Climbing FlightAware ADS-B
Wed 02:15:37 AM 48.9940 -54.1070 68° East 530 610 32,100 1,182 Climbing FlightAware ADS-B
Wed 02:16:12 AM 49.0270 -53.9820 68° East 528 608 32,800 1,200 Climbing FlightAware ADS-B
Wed 02:16:52 AM 49.0630 -53.8450 68° East 525 604 33,600 957 Climbing FlightAware ADS-B
Wed 02:17:21 AM 49.0900 -53.7460 67° East 524 603 33,900 281 Climbing FlightAware ADS-B
Wed 02:17:56 AM 49.1220 -53.6260 68° East 522 601 33,900  Level FlightAware ADS-B
Wed 02:18:32 AM 49.1530 -53.5030 69° East 520 598 33,900  Level FlightAware ADS-B
Wed 02:19:07 AM 49.1830 -53.3910 68° East 519 597 33,900  Level FlightAware ADS-B
Wed 02:19:42 AM 49.2140 -53.2710 68° East 519 597 33,900  Level FlightAware ADS-B
Wed 02:20:17 AM 49.2460 -53.1490 68° East 519 597 33,900  Level FlightAware ADS-B
Wed 02:20:57 AM 49.2810 -53.0090 69° East 519 597 33,900  Level FlightAware ADS-B
Wed 02:21:36 AM 49.3160 -52.8720 69° East 519 597 33,900  Level FlightAware ADS-B
Wed 02:22:12 AM 49.3460 -52.7520 69° East 520 598 33,900  Level FlightAware ADS-B
Wed 02:22:47 AM 49.3760 -52.6350 68° East 521 600 33,900  Level FlightAware ADS-B
Wed 02:23:21 AM 49.4070 -52.5110 69° East 522 601 33,900  Level FlightAware ADS-B
Wed 02:23:52 AM 49.4300 -52.4180 69° East 522 601 33,900  Level FlightAware ADS-B
Wed 02:24:40 AM 49.4700 -52.2590 69° East 522 601 33,900  Level FlightAware ADS-B
Wed 02:25:15 AM 49.4980 -52.1440 69° East 520 598 33,900  Level FlightAware ADS-B
Wed 02:25:53 AM 49.5250 -52.0310 70° East 520 598 33,900  Level FlightAware ADS-B
Wed 02:26:31 AM 49.5690 -51.8550 69° East 523 602 33,900  Level FlightAware ADS-B
Wed 02:27:08 AM 49.6000 -51.7270 69° East 523 602 33,900  Level FlightAware ADS-B
Wed 02:27:37 AM 49.6230 -51.6290 70° East 522 601 33,900  Level FlightAware ADS-B
Wed 02:28:13 AM 49.6490 -51.5280 68° East 522 601 33,900  Level FlightAware ADS-B
Wed 02:28:49 AM 49.6750 -51.4210 69° East 522 601 33,900  Level FlightAware ADS-B
Wed 02:29:25 AM 49.7020 -51.3140 69° East 522 601 33,900  Level FlightAware ADS-B
Wed 02:30:01 AM 49.7280 -51.2080 69° East 522 601 33,900  Level FlightAware ADS-B
Wed 02:30:37 AM 49.7550 -51.1010 69° East 522 601 33,900  Level FlightAware ADS-B
Wed 02:31:13 AM 49.7810 -50.9940 69° East 522 601 33,900  Level FlightAware ADS-B
Wed 02:31:50 AM 49.8080 -50.8840 69° East 522 601 33,900  Level FlightAware ADS-B
Wed 02:32:26 AM 49.8350 -50.7770 69° East 522 601 33,900  Level FlightAware ADS-B
Wed 02:33:02 AM 49.8610 -50.6700 69° East 522 601 33,900  Level FlightAware ADS-B
Wed 02:33:38 AM 49.8880 -50.5630 69° East 522 601 33,900  Level FlightAware ADS-B
Wed 02:34:14 AM 49.9140 -50.4560 69° East 522 601 33,900  Level FlightAware ADS-B
Wed 02:34:51 AM 49.9420 -50.3460 68° East 522 601 33,900  Level FlightAware ADS-B
Wed 02:35:27 AM 49.9680 -50.2390 69° East 522 601 33,900  Level FlightAware ADS-B
Wed 02:36:03 AM 49.9940 -50.1310 69° East 522 601 33,900  Level FlightAware ADS-B
Wed 02:36:39 AM 50.0210 -50.0240 69° East 522 601 33,900  Level FlightAware ADS-B
Wed 02:37:15 AM 50.0470 -49.9170 69° East 522 601 33,900 Level FlightAware ADS-B
Wed 02:43:00 AM 50.3038 -48.7100 70° East  Level FlightAware Approximate
Wed 02:44:00 AM 50.3519 -48.4985 70° East  Level FlightAware Approximate
Wed 02:45:00 AM 50.4012 -48.2875 70° East  Level FlightAware Approximate
Wed 02:46:00 AM 50.4508 -48.0765 70° East  Level FlightAware Approximate
Wed 02:47:00 AM 50.4999 -47.8649 70° East  Level FlightAware Approximate
Wed 02:48:00 AM 50.5487 -47.6530 70° East  Level FlightAware Approximate
Wed 02:49:00 AM 50.5971 -47.4406 70° East  Level FlightAware Approximate
Wed 02:50:00 AM 50.6452 -47.2278 70° East  Level FlightAware Approximate
Wed 02:51:00 AM 50.6928 -47.0146 71° East  Level FlightAware Approximate
Wed 02:52:00 AM 50.7401 -46.8009 71° East  Level FlightAware Approximate
Wed 02:53:00 AM 50.7869 -46.5868 71° East  Level FlightAware Approximate
Wed 02:54:00 AM 50.8334 -46.3723 71° East  Level FlightAware Approximate
Wed 02:55:00 AM 50.8795 -46.1573 71° East  Level FlightAware Approximate
Wed 02:56:00 AM 50.9251 -45.9419 71° East  Level FlightAware Approximate
Wed 02:57:00 AM 50.9704 -45.7261 71° East  Level FlightAware Approximate
Wed 02:58:00 AM 51.0153 -45.5099 72° East  Level FlightAware Approximate
Wed 02:59:00 AM 51.0598 -45.2933 72° East  Level FlightAware Approximate
Wed 03:00:00 AM 51.1038 -45.0762 72° East  Level FlightAware Approximate
Wed 03:01:00 AM 51.1475 -44.8587 72° East  Level FlightAware Approximate
Wed 03:02:00 AM 51.1908 -44.6409 72° East  Level FlightAware Approximate
Wed 03:03:00 AM 51.2336 -44.4226 73° East  Level FlightAware Approximate
Wed 03:04:00 AM 51.2761 -44.2039 73° East  Level FlightAware Approximate
Wed 03:05:00 AM 51.3181 -43.9848 73° East  Level FlightAware Approximate
Wed 03:06:00 AM 51.3598 -43.7653 73° East  Level FlightAware Approximate
Wed 03:07:00 AM 51.4010 -43.5454 73° East  Level FlightAware Approximate
Wed 03:08:00 AM 51.4418 -43.3251 73° East  Level FlightAware Approximate
Wed 03:09:00 AM 51.4822 -43.1044 74° East  Level FlightAware Approximate
Wed 03:10:00 AM 51.5222 -42.8834 74° East  Level FlightAware Approximate
Wed 03:11:00 AM 51.5618 -42.6619 74° East  Level FlightAware Approximate
Wed 03:12:00 AM 51.6009 -42.4401 74° East  Level FlightAware Approximate
Wed 03:13:00 AM 51.6397 -42.2179 74° East  Level FlightAware Approximate
Wed 03:14:00 AM 51.6780 -41.9953 74° East  Level FlightAware Approximate
Wed 03:15:00 AM 51.7159 -41.7723 75° East  Level FlightAware Approximate
Wed 03:16:00 AM 51.7534 -41.5490 75° East  Level FlightAware Approximate
Wed 03:17:00 AM 51.7904 -41.3252 75° East  Level FlightAware Approximate
Wed 03:18:00 AM 51.8270 -41.1012 75° East  Level FlightAware Approximate
Wed 03:19:00 AM 51.8632 -40.8767 75° East  Level FlightAware Approximate
Wed 03:20:00 AM 51.8990 -40.6519 75° East  Level FlightAware Approximate
Wed 03:21:00 AM 51.9343 -40.4268 76° East  Level FlightAware Approximate
Wed 03:22:00 AM 51.9693 -40.2012 76° East  Level FlightAware Approximate
Wed 03:23:00 AM 52.0035 -39.9753 77° East  Level FlightAware Approximate
Wed 03:24:00 AM 52.0359 -39.7485 77° East  Level FlightAware Approximate
Wed 03:25:00 AM 52.0677 -39.5213 77° East  Level FlightAware Approximate
Wed 03:26:00 AM 52.0992 -39.2938 77° East  Level FlightAware Approximate
Wed 03:27:00 AM 52.1302 -39.0659 77° East  Level FlightAware Approximate
Wed 03:28:00 AM 52.1608 -38.8378 78° East  Level FlightAware Approximate
Wed 03:29:00 AM 52.1909 -38.6093 78° East  Level FlightAware Approximate
Wed 03:30:00 AM 52.2206 -38.3806 78° East  Level FlightAware Approximate
Wed 03:31:00 AM 52.2498 -38.1515 78° East  Level FlightAware Approximate
Wed 03:32:00 AM 52.2784 -37.9221 78° East  Level FlightAware Approximate
Wed 03:33:00 AM 52.3065 -37.6923 79° East  Level FlightAware Approximate
Wed 03:34:00 AM 52.3342 -37.4623 79° East  Level FlightAware Approximate
Wed 03:35:00 AM 52.3614 -37.2320 79° East  Level FlightAware Approximate
Wed 03:36:00 AM 52.3882 -37.0014 79° East  Level FlightAware Approximate
Wed 03:37:00 AM 52.4145 -36.7705 79° East  Level FlightAware Approximate
Wed 03:38:00 AM 52.4404 -36.5393 80° East  Level FlightAware Approximate
Wed 03:39:00 AM 52.4658 -36.3079 80° East  Level FlightAware Approximate
Wed 03:40:00 AM 52.4918 -36.0765 79° East  Level FlightAware Approximate
Wed 03:41:00 AM 52.5173 -35.8449 80° East  Level FlightAware Approximate
Wed 03:42:00 AM 52.5425 -35.6129 80° East  Level FlightAware Approximate
Wed 03:43:00 AM 52.5671 -35.3808 80° East  Level FlightAware Approximate
Wed 03:44:00 AM 52.5913 -35.1483 80° East  Level FlightAware Approximate
Wed 03:45:00 AM 52.6151 -34.9156 80° East  Level FlightAware Approximate
Wed 03:46:00 AM 52.6380 -34.6826 81° East  Level FlightAware Approximate
Wed 03:47:00 AM 52.6591 -34.4490 81° East  Level FlightAware Approximate
Wed 03:48:00 AM 52.6798 -34.2151 82° East  Level FlightAware Approximate
Wed 03:49:00 AM 52.7000 -33.9811 82° East  Level FlightAware Approximate
Wed 03:50:00 AM 52.7198 -33.7468 82° East  Level FlightAware Approximate
Wed 03:51:00 AM 52.7391 -33.5123 82° East  Level FlightAware Approximate
Wed 03:52:00 AM 52.7579 -33.2776 82° East  Level FlightAware Approximate
Wed 03:53:00 AM 52.7774 -33.0430 82° East  Level FlightAware Approximate
Wed 03:54:00 AM 52.7974 -32.8084 82° East  Level FlightAware Approximate
Wed 03:55:00 AM 52.8170 -32.5735 82° East  Level FlightAware Approximate
Wed 03:56:00 AM 52.8361 -32.3385 82° East  Level FlightAware Approximate
Wed 03:57:00 AM 52.8547 -32.1032 82° East  Level FlightAware Approximate
Wed 03:58:00 AM 52.8729 -31.8678 83° East  Level FlightAware Approximate
Wed 03:59:00 AM 52.8906 -31.6321 83° East  Level FlightAware Approximate
Wed 04:00:00 AM 52.9078 -31.3963 83° East  Level FlightAware Approximate
Wed 04:01:00 AM 52.9246 -31.1596 83° East  Level FlightAware Approximate
Wed 04:02:00 AM 52.9409 -30.9228 83° East  Level FlightAware Approximate
Wed 04:03:00 AM 52.9568 -30.6858 84° East  Level FlightAware Approximate
Wed 04:04:00 AM 52.9722 -30.4486 84° East  Level FlightAware Approximate
Wed 04:05:00 AM 52.9871 -30.2113 84° East  Level FlightAware Approximate
Wed 04:06:00 AM 53.0037 -29.9743 77° East  Level FlightAware Approximate
Wed 04:07:00 AM 53.0366 -29.7418 77° East  Level FlightAware Approximate
Wed 04:08:00 AM 53.0691 -29.5090 77° East  Level FlightAware Approximate
Wed 04:09:00 AM 53.1012 -29.2758 77° East  Level FlightAware Approximate
Wed 04:10:00 AM 53.1328 -29.0423 77° East  Level FlightAware Approximate
Wed 04:11:00 AM 53.1640 -28.8084 77° East  Level FlightAware Approximate
Wed 04:12:00 AM 53.1946 -28.5742 78° East  Level FlightAware Approximate
Wed 04:13:00 AM 53.2249 -28.3396 78° East  Level FlightAware Approximate
Wed 04:14:00 AM 53.2546 -28.1047 78° East  Level FlightAware Approximate
Wed 04:15:00 AM 53.2839 -27.8695 78° East  Level FlightAware Approximate
Wed 04:16:00 AM 53.3128 -27.6340 78° East  Level FlightAware Approximate
Wed 04:17:00 AM 53.3411 -27.3982 79° East  Level FlightAware Approximate
Wed 04:18:00 AM 53.3690 -27.1620 79° East  Level FlightAware Approximate
Wed 04:19:00 AM 53.3965 -26.9256 79° East  Level FlightAware Approximate
Wed 04:20:00 AM 53.4235 -26.6888 79° East  Level FlightAware Approximate
Wed 04:21:00 AM 53.4500 -26.4517 79° East  Level FlightAware Approximate
Wed 04:22:00 AM 53.4757 -26.2143 80° East  Level FlightAware Approximate
Wed 04:23:00 AM 53.5004 -25.9764 80° East  Level FlightAware Approximate
Wed 04:24:00 AM 53.5246 -25.7382 80° East  Level FlightAware Approximate
Wed 04:25:00 AM 53.5484 -25.4998 80° East  Level FlightAware Approximate
Wed 04:26:00 AM 53.5717 -25.2611 81° East  Level FlightAware Approximate
Wed 04:27:00 AM 53.5945 -25.0221 81° East  Level FlightAware Approximate
Wed 04:28:00 AM 53.6168 -24.7829 81° East  Level FlightAware Approximate
Wed 04:29:00 AM 53.6386 -24.5434 81° East  Level FlightAware Approximate
Wed 04:30:00 AM 53.6609 -24.3039 81° East  Level FlightAware Approximate
Wed 04:31:00 AM 53.6835 -24.0644 81° East  Level FlightAware Approximate
Wed 04:32:00 AM 53.7057 -23.8247 81° East  Level FlightAware Approximate
Wed 04:33:00 AM 53.7274 -23.5847 81° East  Level FlightAware Approximate
Wed 04:34:00 AM 53.7487 -23.3444 81° East  Level FlightAware Approximate
Wed 04:35:00 AM 53.7694 -23.1039 82° East  Level FlightAware Approximate
Wed 04:36:00 AM 53.7897 -22.8632 82° East  Level FlightAware Approximate
Wed 04:37:00 AM 53.8095 -22.6222 82° East  Level FlightAware Approximate
Wed 04:38:00 AM 53.8292 -22.3811 82° East  Level FlightAware Approximate
Wed 04:39:00 AM 53.8488 -22.1399 82° East  Level FlightAware Approximate
Wed 04:40:00 AM 53.8678 -21.8984 82° East  Level FlightAware Approximate
Wed 04:41:00 AM 53.8863 -21.6567 82° East  Level FlightAware Approximate
Wed 04:42:00 AM 53.9044 -21.4148 83° East  Level FlightAware Approximate
Wed 04:43:00 AM 53.9220 -21.1727 83° East  Level FlightAware Approximate
Wed 04:44:00 AM 53.9390 -20.9304 83° East  Level FlightAware Approximate
Wed 04:45:00 AM 53.9557 -20.6879 83° East  Level FlightAware Approximate
Wed 04:46:00 AM 53.9718 -20.4452 83° East  Level FlightAware Approximate
Wed 04:47:00 AM 53.9874 -20.2023 84° East  Level FlightAware Approximate
Wed 04:48:00 AM 53.9975 -19.9592 96° East  Level FlightAware Approximate
Wed 04:49:00 AM 53.9820 -19.7163 96° East  Level FlightAware Approximate
Wed 04:50:00 AM 53.9661 -19.4735 96° East  Level FlightAware Approximate
Wed 04:51:00 AM 53.9497 -19.2309 96° East  Level FlightAware Approximate
Wed 04:52:00 AM 53.9328 -18.9885 97° East  Level FlightAware Approximate
Wed 04:53:00 AM 53.9155 -18.7463 97° East  Level FlightAware Approximate
Wed 04:54:00 AM 53.8976 -18.5042 97° East  Level FlightAware Approximate
Wed 04:55:00 AM 53.8792 -18.2624 97° East  Level FlightAware Approximate
Wed 04:56:00 AM 53.8604 -18.0209 97° East  Level FlightAware Approximate
Wed 04:57:00 AM 53.8411 -17.7795 98° East  Level FlightAware Approximate
Wed 04:58:00 AM 53.8213 -17.5384 98° East  Level FlightAware Approximate
Wed 04:59:00 AM 53.8023 -17.2971 97° East  Level FlightAware Approximate
Wed 05:00:00 AM 53.7832 -17.0560 98° East  Level FlightAware Approximate
Wed 05:01:00 AM 53.7636 -16.8152 98° East  Level FlightAware Approximate
Wed 05:01:44 AM 53.8590 -14.0970 98° East 526 605 34,900  Level FlightAware ADS-B
Wed 05:02:00 AM 53.7436 -16.5745 98° East  Level FlightAware Approximate
Wed 05:02:19 AM 53.8400 -13.9780 105° East 525 604 34,900  Level FlightAware ADS-B
Wed 05:02:59 AM 53.8130 -13.8110 105° East 523 602 34,900  Level FlightAware ADS-B
Wed 05:03:35 AM 53.7890 -13.6650 105° East 522 601 34,900  Level FlightAware ADS-B
Wed 05:04:19 AM 53.7600 -13.4920 106° East 521 600 34,900  Level FlightAware ADS-B
Wed 05:04:59 AM 53.7340 -13.3310 105° East 521 600 34,900  Level FlightAware ADS-B
Wed 05:05:34 AM 53.7100 -13.1900 106° East 523 602 34,900  Level FlightAware ADS-B
Wed 05:06:09 AM 53.6880 -13.0570 106° East 526 605 34,900  Level FlightAware ADS-B
Wed 05:06:45 AM 53.6640 -12.9190 106° East 526 605 34,900  Level FlightAware ADS-B
Wed 05:07:20 AM 53.6400 -12.7810 106° East 527 606 34,900  Level FlightAware ADS-B
Wed 05:08:01 AM 53.6120 -12.6190 106° East 530 610 34,900  Level FlightAware ADS-B
Wed 05:08:35 AM 53.5870 -12.4810 107° East 529 609 34,900  Level FlightAware ADS-B
Wed 05:09:10 AM 53.5630 -12.3380 106° East 530 610 34,900  Level FlightAware ADS-B
Wed 05:09:50 AM 53.5350 -12.1870 107° East 530 610 34,900  Level FlightAware ADS-B
Wed 05:10:20 AM 53.5130 -12.0650 107° East 529 609 34,900  Level FlightAware ADS-B
Wed 05:10:55 AM 53.4880 -11.9270 107° East 529 609 34,900  Level FlightAware ADS-B
Wed 05:11:31 AM 53.4650 -11.7970 107° East 529 609 34,900  Level FlightAware ADS-B
Wed 05:12:06 AM 53.4380 -11.6470 107° East 530 610 34,900  Level FlightAware ADS-B
Wed 05:12:41 AM 53.4120 -11.5060 107° East 528 608 34,900  Level FlightAware ADS-B
Wed 05:13:16 AM 53.3870 -11.3730 107° East 527 606 34,900  Level FlightAware ADS-B
Wed 05:13:51 AM 53.3610 -11.2320 107° East 525 604 34,900  Level FlightAware ADS-B
Wed 05:14:36 AM 53.3300 -11.0700 108° East 525 604 34,900  Level FlightAware ADS-B
Wed 05:15:11 AM 53.3020 -10.9230 108° East 523 602 34,900  Level FlightAware ADS-B
Wed 05:15:46 AM 53.2760 -10.7920 108° East 524 603 34,900  Level FlightAware ADS-B
Wed 05:16:21 AM 53.2500 -10.6540 107° East 523 602 34,900  Level FlightAware ADS-B
Wed 05:16:56 AM 53.2240 -10.5240 108° East 523 602 34,900  Level FlightAware ADS-B
Wed 05:17:31 AM 53.1980 -10.3900 108° East 522 601 34,900  Level FlightAware ADS-B
Wed 05:18:12 AM 53.1670 -10.2330 108° East 522 601 34,900  Level FlightAware ADS-B
Wed 05:18:47 AM 53.1400 -10.1000 109° East 522 601 34,900  Level FlightAware ADS-B
Wed 05:19:22 AM 53.1140 -9.9660 108° East 522 601 34,900  Level FlightAware ADS-B
Wed 05:19:57 AM 53.0870 -9.8300 108° East 522 601 34,900  Level FlightAware ADS-B
Wed 05:20:32 AM 53.0600 -9.7010 109° East 519 597 34,900  Level FlightAware ADS-B
Wed 05:21:08 AM 53.0330 -9.5680 109° East 518 596 34,900  Level FlightAware ADS-B
Wed 05:21:43 AM 53.0060 -9.4330 108° East 517 595 34,900  Level FlightAware ADS-B
Wed 05:22:17 AM 52.9780 -9.3010 109° East 517 595 34,900  Level FlightAware ADS-B
Wed 05:22:53 AM 52.9500 -9.1700 109° East 516 594 34,900  Level FlightAware ADS-B
Wed 05:23:27 AM 52.9230 -9.0420 109° East 516 594 34,900  Level FlightAware ADS-B
Wed 05:24:03 AM 52.8950 -8.9070 109° East 516 594 34,900  Level FlightAware ADS-B
Wed 05:24:37 AM 52.8680 -8.7800 109° East 517 595 34,900  Level FlightAware ADS-B
Wed 05:24:38 AM 52.8655 -8.7677 109° East 490 564 34,900  Level FlightAware UK
Wed 05:25:08 AM 52.8417 -8.6553 109° East 490 564 34,900  Level FlightAware UK
Wed 05:25:12 AM 52.8390 -8.6450 109° East 517 595 34,900  Level FlightAware ADS-B
Wed 05:25:52 AM 52.8080 -8.4990 109° East 519 597 34,900  Level FlightAware ADS-B
Wed 05:26:27 AM 52.7780 -8.3660 110° East 519 597 34,900  Level FlightAware ADS-B
Wed 05:27:02 AM 52.7510 -8.2390 109° East 518 596 34,900  Level FlightAware ADS-B
Wed 05:27:37 AM 52.7220 -8.1050 109° East 518 596 34,900  Level FlightAware ADS-B
Wed 05:27:38 AM 52.7204 -8.0933 109° East 492 566 34,900  Level FlightAware UK
Wed 05:28:08 AM 52.6958 -7.9825 109° East 492 566 34,900  Level FlightAware UK
Wed 05:28:13 AM 52.6950 -7.9870 109° East 519 597 34,900  Level FlightAware ADS-B
Wed 05:28:46 AM 52.6700 -7.8720 110° East 518 596 34,900  Level FlightAware ADS-B
Wed 05:29:24 AM 52.6390 -7.7350 110° East 519 597 34,900  Level FlightAware ADS-B
Wed 05:29:57 AM 52.6150 -7.5870 105° East 517 595 34,900  Level FlightAware ADS-B
Wed 05:30:35 AM 52.5910 -7.4350 105° East 517 595 34,900  Level FlightAware ADS-B
Wed 05:31:10 AM 52.5700 -7.3100 105° East 516 594 34,900  Level FlightAware ADS-B
Wed 05:31:44 AM 52.5480 -7.1700 105° East 492 566 34,900  Level FlightAware UK
Wed 05:31:50 AM 52.5450 -7.1550 105° East 517 595 34,900  Level FlightAware ADS-B
Wed 05:32:20 AM 52.5250 -7.0420 106° East 518 596 34,900  Level FlightAware ADS-B
Wed 05:32:54 AM 52.5030 -6.9140 106° East 516 594 34,900  Level FlightAware ADS-B
Wed 05:33:28 AM 52.4810 -6.7860 106° East 517 595 34,900  Level FlightAware ADS-B
Wed 05:34:06 AM 52.4510 -6.6450 109° East 518 596 34,900  Level FlightAware ADS-B
Wed 05:34:42 AM 52.4170 -6.5110 113° Southeast 519 597 34,900  Level FlightAware ADS-B
Wed 05:35:22 AM 52.3790 -6.3720 114° Southeast 518 596 34,900  Level FlightAware ADS-B
Wed 05:35:59 AM 52.3410 -6.2400 115° Southeast 517 595 34,900  Level FlightAware ADS-B
Wed 05:36:32 AM 52.3090 -6.1270 115° Southeast 516 594 34,900  Level FlightAware ADS-B
Wed 05:37:08 AM 52.2730 -5.9960 114° Southeast 515 593 34,900  Level FlightAware ADS-B
Wed 05:37:38 AM 52.2430 -5.8940 116° Southeast 515 593 34,900  Level FlightAware ADS-B
Wed 05:38:18 AM 52.2020 -5.7540 115° Southeast 514 592 34,900  Level FlightAware ADS-B
Wed 05:38:52 AM 52.1680 -5.6350 115° Southeast 514 592 34,900  Level FlightAware ADS-B
Wed 05:39:24 AM 52.1360 -5.5220 115° Southeast 515 593 34,900  Level FlightAware ADS-B
Wed 05:40:04 AM 52.0950 -5.3830 116° Southeast 512 589 34,900  Level FlightAware ADS-B
Wed 05:40:40 AM 52.0590 -5.2580 115° Southeast 510 587 34,900  Level FlightAware ADS-B
Wed 05:41:12 AM 52.0260 -5.1480 116° Southeast 509 586 34,900  Level FlightAware ADS-B
Wed 05:41:46 AM 51.9960 -5.0250 112° Southeast 505 581 34,900  Level FlightAware ADS-B
Wed 05:42:21 AM 51.9780 -4.8970 103° East 499 574 34,900  Level FlightAware ADS-B
Wed 05:42:59 AM 51.9630 -4.7540 100° East 498 573 34,900  Level FlightAware ADS-B
Wed 05:43:33 AM 51.9499 -4.6273 100° East 492 566 34,900  Level FlightAware UK
Wed 05:43:35 AM 51.9490 -4.6210 100° East 499 574 34,900  Level FlightAware ADS-B
Wed 05:44:07 AM 51.9360 -4.5040 100° East 498 573 34,900  Level FlightAware ADS-B
Wed 05:44:09 AM 51.9357 -4.4943 100° East 492 566 34,900  Level FlightAware UK
Wed 05:44:39 AM 51.9231 -4.3843 100° East 492 566 34,900  Level FlightAware UK
Wed 05:44:43 AM 51.9210 -4.3720 100° East 498 573 34,900  Level FlightAware ADS-B
Wed 05:45:17 AM 51.9070 -4.2480 100° East 497 572 34,900  Level FlightAware ADS-B
Wed 05:45:53 AM 51.8920 -4.1200 101° East 496 571 34,900  Level FlightAware ADS-B
Wed 05:46:25 AM 51.8780 -4.0000 101° East 494 568 34,900  Level FlightAware ADS-B
Wed 05:46:57 AM 51.8644 -3.8816 101° East 494 568 34,900  Level FlightAware UK
Wed 05:47:01 AM 51.8630 -3.8700 101° East 493 567 34,900  Level FlightAware ADS-B
Wed 05:47:37 AM 51.8470 -3.7400 101° East 492 566 34,900  Level FlightAware ADS-B
Wed 05:48:14 AM 51.8320 -3.6100 101° East 490 564 34,900  Level FlightAware ADS-B
Wed 05:49:03 AM 51.8100 -3.4274 101° East 494 568 34,900  Level FlightAware UK
Wed 05:49:34 AM 51.7966 -3.3194 101° East 490 564 34,900  Level FlightAware UK
Wed 05:50:10 AM 51.7806 -3.1909 101° East 492 566 34,900  Level FlightAware UK
Wed 05:50:37 AM 51.7686 -3.0986 101° East 488 562 34,900  Level FlightAware ADS-B
Wed 05:51:09 AM 51.7540 -2.9810 101° East 488 562 34,900  Level FlightAware ADS-B
Wed 05:51:40 AM 51.7403 -2.8711 101° East 487 560 34,900  Level FlightAware ADS-B
Wed 05:52:12 AM 51.7256 -2.7573 102° East 487 560 34,900  Level FlightAware ADS-B
Wed 05:52:43 AM 51.7115 -2.6475 102° East 486 559 34,900  Level FlightAware ADS-B
Wed 05:53:14 AM 51.6975 -2.5415 102° East 485 558 34,900  Level FlightAware ADS-B
Wed 05:53:44 AM 51.6835 -2.4318 102° East 484 557 34,900  Level FlightAware ADS-B
Wed 05:54:15 AM 51.6689 -2.3229 102° East 483 556 34,900  Level FlightAware ADS-B
Wed 05:54:46 AM 51.6546 -2.2118 102° East 492 566 34,900  Level FlightAware UK
Wed 05:54:53 AM 51.6512 -2.1897 102° East 483 556 34,900  Level FlightAware ADS-B
Wed 05:55:24 AM 51.6368 -2.0812 102° East 482 555 34,900  Level FlightAware ADS-B
Wed 05:55:54 AM 51.6227 -1.9765 102° East 481 554 34,900  Level FlightAware ADS-B
Wed 05:56:25 AM 51.6080 -1.8684 102° East 481 554 34,900  Level FlightAware ADS-B
Wed 05:56:56 AM 51.5933 -1.7606 102° East 481 554 34,900  Level FlightAware ADS-B
Wed 05:57:28 AM 51.5781 -1.6525 103° East 480 552 34,900  Level FlightAware ADS-B
Wed 05:57:58 AM 51.5634 -1.5484 103° East 481 554 34,900  Level FlightAware ADS-B
Wed 05:58:29 AM 51.5480 -1.4372 103° East 480 552 34,900  Level FlightAware ADS-B
Wed 05:59:00 AM 51.5330 -1.3299 103° East 480 552 34,900  Level FlightAware ADS-B
Wed 05:59:31 AM 51.5178 -1.2225 103° East 479 551 34,900  Level FlightAware ADS-B
Wed 06:00:02 AM 51.5024 -1.1158 103° East 477 549 34,900  Level FlightAware ADS-B
Wed 06:00:33 AM 51.4873 -1.0128 103° East 475 547 34,900  Level FlightAware ADS-B
Wed 06:01:05 AM 51.4712 -0.8997 103° East 474 545 34,900  Level FlightAware ADS-B
Wed 06:01:40 AM 51.4536 -0.7802 103° East 473 544 34,900  Level FlightAware ADS-B
Wed 06:02:11 AM 51.4381 -0.6746 103° East 472 543 34,900  Level FlightAware ADS-B
Wed 06:02:43 AM 51.4221 -0.5663 103° East 471 542 34,900  Level FlightAware ADS-B
Wed 06:03:15 AM 51.4074 -0.4617 103° East 466 536 34,900  Level FlightAware ADS-B
Wed 06:03:48 AM 51.3953 -0.3502 100° East 463 533 34,900  Level FlightAware ADS-B
Wed 06:04:18 AM 51.3859 -0.2490 98° East 461 531 34,900  Level FlightAware ADS-B
Wed 06:04:52 AM 51.3761 -0.1346 98° East 459 528 34,900  Level FlightAware ADS-B
Wed 06:05:23 AM 51.3671 -0.0273 98° East 459 528 34,900 97 Level FlightAware ADS-B
Wed 06:05:54 AM 51.3581 0.0769 98° East 458 527 35,000  Climbing FlightAware ADS-B
Wed 06:06:24 AM 51.3492 0.1773 98° East 459 528 34,900 -98 Descending FlightAware ADS-B
Wed 06:06:55 AM 51.3397 0.2816 98° East 460 529 34,900  Level FlightAware ADS-B
Wed 06:07:35 AM 51.3273 0.4124 99° East 461 531 34,900  Level FlightAware ADS-B
Wed 06:08:06 AM 51.3175 0.5170 98° East 462 532 34,900  Level FlightAware ADS-B
Wed 06:08:38 AM 51.3072 0.6250 99° East 463 533 34,900  Level FlightAware ADS-B
Wed 06:09:12 AM 51.2958 0.7434 99° East 465 535 34,900  Level FlightAware ADS-B
Wed 06:09:43 AM 51.2856 0.8485 99° East 468 539 34,900  Level FlightAware ADS-B
Wed 06:10:17 AM 51.2742 0.9645 99° East 469 540 34,900  Level FlightAware ADS-B
Wed 06:11:00 AM 51.2596 1.1133 99° East 488 562 34,900  Level FlightAware UK
Wed 06:11:21 AM 51.2540 1.1630 99° East 470 541 34,900  Level FlightAware ADS-B
Wed 06:11:57 AM 51.2390 1.3000 100° East 473 544 34,900  Level FlightAware ADS-B
Wed 06:12:27 AM 51.2250 1.4030 100° East 475 547 34,900  Level FlightAware ADS-B
Wed 06:12:31 AM 51.2228 1.4230 100° East 490 564 34,900  Level FlightAware UK
Wed 06:13:01 AM 51.2078 1.5258 100° East 490 564 34,900  Level FlightAware UK
Wed 06:13:02 AM 51.2070 1.5230 100° East 476 548 34,900  Level FlightAware ADS-B
Wed 06:13:42 AM 51.1860 1.6630 103° East 479 551 34,900  Level FlightAware ADS-B
Wed 06:14:14 AM 51.1690 1.7730 104° East 479 551 34,900  Level FlightAware ADS-B
Wed 06:14:51 AM 51.1490 1.9030 104° East 478 550 34,900  Level FlightAware ADS-B
Wed 06:15:27 AM 51.1310 2.0260 103° East 477 549 34,900  Level FlightAware ADS-B
Wed 06:15:59 AM 51.1140 2.1310 104° East 476 548 34,900  Level FlightAware ADS-B
Wed 06:16:33 AM 51.0960 2.2500 103° East 476 548 34,900 86 Level FlightAware ADS-B
Wed 06:17:09 AM 51.0770 2.3720 104° East 478 550 35,000  Climbing FlightAware ADS-B
Wed 06:17:51 AM 51.0560 2.5050 104° East 480 552 34,900 -83 Descending FlightAware ADS-B
Wed 06:18:21 AM 51.0400 2.6010 105° East 483 556 34,900  Level FlightAware ADS-B
Wed 06:19:02 AM 51.0160 2.7530 104° East 486 559 34,900  Level FlightAware ADS-B
Wed 06:19:35 AM 50.9980 2.8640 104° East 484 557 34,900  Level FlightAware ADS-B
Wed 06:20:10 AM 50.9780 2.9880 104° East 486 559 34,900  Level FlightAware ADS-B
Wed 06:20:46 AM 50.9570 3.1180 104° East 485 558 34,900  Level FlightAware ADS-B
Wed 06:21:22 AM 50.9360 3.2420 105° East 484 557 34,900  Level FlightAware ADS-B
Wed 06:21:57 AM 50.9170 3.3550 105° East 482 555 34,900  Level FlightAware ADS-B
Wed 06:22:30 AM 50.8980 3.4720 104° East 484 557 34,900  Level FlightAware ADS-B
Wed 06:23:05 AM 50.8780 3.5910 105° East 483 556 34,900  Level FlightAware ADS-B
Wed 06:23:39 AM 50.8590 3.7040 105° East 481 554 34,900  Level FlightAware ADS-B
Wed 06:24:12 AM 50.8400 3.8150 105° East 479 551 34,900  Level FlightAware ADS-B
Wed 06:24:50 AM 50.8170 3.9500 105° East 477 549 34,900  Level FlightAware ADS-B
Wed 06:25:28 AM 50.7950 4.0780 105° East 476 548 34,900  Level FlightAware ADS-B
Wed 06:26:04 AM 50.7760 4.1850 106° East 477 549 34,900  Level FlightAware ADS-B
Wed 06:26:40 AM 50.7550 4.3020 106° East 477 549 34,900  Level FlightAware ADS-B
Wed 06:27:10 AM 50.7350 4.4190 105° East 477 549 34,900 88 Level FlightAware ADS-B
Wed 06:27:48 AM 50.7140 4.5400 105° East 477 549 35,000  Climbing FlightAware ADS-B
Wed 06:28:24 AM 50.6910 4.6670 106° East 478 550 34,900 -94 Descending FlightAware ADS-B
Wed 06:28:52 AM 50.6760 4.7480 106° East 480 552 34,900  Level FlightAware ADS-B
Wed 06:28:56 AM 50.6713 4.7731 106° East 484 557 34,900  Level FlightAware UK
Wed 06:29:33 AM 50.6490 4.8960 106° East 481 554 34,900  Level FlightAware ADS-B
Wed 06:30:03 AM 50.6320 4.9900 106° East 482 555 34,900  Level FlightAware ADS-B
Wed 06:30:47 AM 50.6020 5.1380 108° East 488 562 34,900  Level FlightAware ADS-B
Wed 06:31:24 AM 50.5610 5.2560 119° Southeast 495 570 34,900  Level FlightAware ADS-B
Wed 06:31:59 AM 50.5150 5.3590 125° Southeast 495 570 34,900  Level FlightAware ADS-B
Wed 06:32:30 AM 50.4750 5.4470 126° Southeast 495 570 34,900  Level FlightAware ADS-B
Wed 06:33:02 AM 50.4290 5.5490 125° Southeast 496 571 34,900  Level FlightAware ADS-B
Wed 06:33:42 AM 50.3790 5.6570 126° Southeast 496 571 34,900  Level FlightAware ADS-B
Wed 06:34:19 AM 50.3270 5.7710 126° Southeast 497 572 34,900  Level FlightAware ADS-B
Wed 06:34:54 AM 50.2810 5.8700 126° Southeast 497 572 34,900  Level FlightAware ADS-B
Wed 06:35:31 AM 50.2320 5.9780 125° Southeast 497 572 34,900  Level FlightAware ADS-B
Wed 06:35:59 AM 50.1930 6.0630 126° Southeast 498 573 34,900  Level FlightAware ADS-B
Wed 06:36:35 AM 50.1440 6.1670 126° Southeast 499 574 34,900  Level FlightAware ADS-B
Wed 06:37:07 AM 50.1000 6.2600 126° Southeast 499 574 34,900  Level FlightAware ADS-B
Wed 06:37:43 AM 50.0540 6.3620 125° Southeast 500 575 34,900  Level FlightAware ADS-B
Wed 06:38:19 AM 50.0030 6.4690 127° Southeast 501 577 34,900  Level FlightAware ADS-B
Wed 06:39:00 AM 49.9470 6.5880 126° Southeast 502 578 34,900  Level FlightAware ADS-B
Wed 06:39:33 AM 49.9010 6.6840 127° Southeast 502 578 34,900  Level FlightAware ADS-B
Wed 06:40:10 AM 49.8510 6.7910 126° Southeast 502 578 34,900  Level FlightAware ADS-B
Wed 06:40:45 AM 49.8030 6.8890 127° Southeast 503 579 34,900  Level FlightAware ADS-B
Wed 06:41:17 AM 49.7570 6.9850 127° Southeast 504 580 34,900  Level FlightAware ADS-B
Wed 06:41:55 AM 49.7050 7.0950 126° Southeast 506 582 34,900  Level FlightAware ADS-B
Wed 06:42:27 AM 49.6600 7.1880 127° Southeast 505 581 34,900  Level FlightAware ADS-B
Wed 06:43:07 AM 49.6030 7.3060 127° Southeast 506 582 34,900  Level FlightAware ADS-B
Wed 06:43:39 AM 49.5580 7.3950 128° Southeast 507 583 34,900  Level FlightAware ADS-B
Wed 06:44:13 AM 49.5110 7.4930 126° Southeast 507 583 34,900  Level FlightAware ADS-B
Wed 06:44:49 AM 49.4610 7.5970 126° Southeast 508 585 34,900  Level FlightAware ADS-B
Wed 06:45:23 AM 49.4120 7.6950 128° Southeast 509 586 34,900  Level FlightAware ADS-B
Wed 06:46:01 AM 49.3580 7.8040 127° Southeast 510 587 34,900  Level FlightAware ADS-B
Wed 06:46:37 AM 49.3060 7.9110 127° Southeast 511 588 34,900  Level FlightAware ADS-B
Wed 06:47:09 AM 49.2610 8.0000 128° Southeast 513 590 34,900  Level FlightAware ADS-B
Wed 06:47:45 AM 49.2080 8.1070 127° Southeast 513 590 34,900  Level FlightAware ADS-B
Wed 06:48:19 AM 49.1620 8.1990 127° Southeast 512 589 34,900  Level FlightAware ADS-B
Wed 06:49:02 AM 49.0980 8.3250 128° Southeast 513 590 34,900  Level FlightAware ADS-B
Wed 06:49:37 AM 49.0440 8.4210 131° Southeast 515 593 34,900  Level FlightAware ADS-B
Wed 06:50:12 AM 48.9830 8.5080 137° Southeast 517 595 34,900  Level FlightAware ADS-B
Wed 06:50:48 AM 48.9180 8.5950 139° Southeast 516 594 34,900  Level FlightAware ADS-B
Wed 06:51:21 AM 48.8600 8.6710 139° Southeast 515 593 34,900  Level FlightAware ADS-B
Wed 06:51:53 AM 48.8000 8.7500 139° Southeast 515 593 34,900  Level FlightAware ADS-B
Wed 06:52:28 AM 48.7370 8.8350 138° Southeast 515 593 34,900  Level FlightAware ADS-B
Wed 06:53:08 AM 48.6650 8.9290 139° Southeast 513 590 34,900  Level FlightAware ADS-B
Wed 06:53:43 AM 48.6030 9.0090 140° Southeast 513 590 34,900  Level FlightAware ADS-B
Wed 06:54:15 AM 48.5460 9.0840 139° Southeast 513 590 34,900  Level FlightAware ADS-B
Wed 06:54:54 AM 48.4750 9.1770 139° Southeast 511 588 34,900  Level FlightAware ADS-B
Wed 06:55:28 AM 48.4130 9.2560 140° Southeast 511 588 34,900  Level FlightAware ADS-B
Wed 06:55:57 AM 48.3640 9.3210 139° Southeast 510 587 34,900  Level FlightAware ADS-B
Wed 06:56:36 AM 48.2940 9.4110 139° Southeast 508 585 34,900  Level FlightAware ADS-B
Wed 06:57:11 AM 48.2310 9.4930 139° Southeast 506 582 34,900  Level FlightAware ADS-B
Wed 06:57:47 AM 48.1670 9.5760 139° Southeast 505 581 34,900  Level FlightAware ADS-B
Wed 06:58:24 AM 48.1020 9.6580 140° Southeast 503 579 34,900  Level FlightAware ADS-B
Wed 06:58:55 AM 48.0480 9.7290 139° Southeast 503 579 34,900  Level FlightAware ADS-B
Wed 06:59:31 AM 47.9860 9.8080 140° Southeast 502 578 34,900  Level FlightAware ADS-B
Wed 07:00:08 AM 47.9190 9.8940 139° Southeast 503 579 34,900  Level FlightAware ADS-B
Wed 07:00:43 AM 47.8580 9.9720 139° Southeast 504 580 34,900  Level FlightAware ADS-B
Wed 07:01:13 AM 47.8020 10.0370 142° Southeast 506 582 34,900 87 Level FlightAware ADS-B
Wed 07:01:52 AM 47.7280 10.1190 143° Southeast 507 583 35,000  Climbing FlightAware ADS-B
Wed 07:02:27 AM 47.6620 10.1930 143° Southeast 507 583 34,900 -86 Descending FlightAware ADS-B
Wed 07:03:02 AM 47.6000 10.2620 143° Southeast 508 585 34,900  Level FlightAware ADS-B
Wed 07:03:43 AM 47.5220 10.3460 144° Southeast 508 585 34,900  Level FlightAware ADS-B
Wed 07:04:17 AM 47.4570 10.4170 144° Southeast 508 585 34,900 85 Level FlightAware ADS-B
Wed 07:04:54 AM 47.3850 10.4890 146° Southeast 509 586 35,000 92 Climbing FlightAware ADS-B
Wed 07:05:22 AM 47.3260 10.5380 151° Southeast 510 587 35,000 -87 Level FlightAware ADS-B
Wed 07:06:03 AM 47.2430 10.6040 152° Southeast 510 587 34,900 -76 Descending FlightAware ADS-B
Wed 07:06:41 AM 47.1610 10.6650 153° Southeast 511 588 34,900  Level FlightAware ADS-B
Wed 07:07:14 AM 47.0910 10.7060 158° South 511 588 34,900  Level FlightAware ADS-B
Wed 07:07:53 AM 47.0030 10.7540 160° South 511 588 34,900  Level FlightAware ADS-B
Wed 07:08:30 AM 46.9190 10.8010 159° South 510 587 34,900  Level FlightAware ADS-B
Wed 07:09:03 AM 46.8490 10.8400 159° South 511 588 34,900  Level FlightAware ADS-B
Wed 07:09:41 AM 46.7670 10.8990 154° Southeast 508 585 34,900  Level FlightAware ADS-B
Wed 07:10:13 AM 46.7100 10.9710 139° Southeast 510 587 34,900  Level FlightAware ADS-B
Wed 07:10:51 AM 46.6460 11.0620 136° Southeast 509 586 34,900  Level FlightAware ADS-B
Wed 07:11:25 AM 46.5970 11.1340 135° Southeast 507 583 34,900 87 Level FlightAware ADS-B
Wed 07:12:00 AM 46.5330 11.2240 136° Southeast 507 583 35,000  Climbing FlightAware ADS-B
Wed 07:12:29 AM 46.4830 11.2960 135° Southeast 507 583 34,900 -85 Descending FlightAware ADS-B
Wed 07:13:11 AM 46.4200 11.3970 132° Southeast 506 582 34,900  Level FlightAware ADS-B
Wed 07:13:48 AM 46.3630 11.4950 130° Southeast 507 583 34,900  Level FlightAware ADS-B
Wed 07:14:20 AM 46.3130 11.5810 130° Southeast 507 583 34,900 87 Level FlightAware ADS-B
Wed 07:14:57 AM 46.2570 11.6770 130° Southeast 509 586 35,000  Climbing FlightAware ADS-B
Wed 07:15:30 AM 46.2060 11.7640 130° Southeast 513 590 34,900 -87 Descending FlightAware ADS-B
Wed 07:16:06 AM 46.1500 11.8600 130° Southeast 515 593 34,900  Level FlightAware ADS-B
Wed 07:16:39 AM 46.1050 11.9360 130° Southeast 516 594 34,900  Level FlightAware ADS-B
Wed 07:17:18 AM 46.0410 12.0440 130° Southeast 517 595 34,900  Level FlightAware ADS-B
Wed 07:17:48 AM 45.9960 12.1190 131° Southeast 517 595 34,900  Level FlightAware ADS-B
Wed 07:18:23 AM 45.9410 12.2110 131° Southeast 517 595 34,900  Level FlightAware ADS-B
Wed 07:18:58 AM 45.8850 12.3040 131° Southeast 517 595 34,900  Level FlightAware ADS-B
Wed 07:19:33 AM 45.8320 12.3960 130° Southeast 517 595 34,900  Level FlightAware ADS-B
Wed 07:20:03 AM 45.7870 12.4710 131° Southeast 516 594 34,900  Level FlightAware ADS-B
Wed 07:20:59 AM 45.6980 12.6180 131° Southeast 517 595 34,900  Level FlightAware ADS-B
Wed 07:21:33 AM 45.6430 12.7090 131° Southeast 517 595 34,900  Level FlightAware ADS-B
Wed 07:22:14 AM 45.5820 12.8090 131° Southeast 516 594 34,900  Level FlightAware ADS-B
Wed 07:22:49 AM 45.5260 12.8990 132° Southeast 517 595 34,900  Level FlightAware ADS-B
Wed 07:23:24 AM 45.4720 12.9890 131° Southeast 517 595 34,900  Level FlightAware ADS-B
Wed 07:24:04 AM 45.4080 13.0910 132° Southeast 517 595 34,900  Level FlightAware ADS-B
Wed 07:24:31 AM 45.3670 13.1580 131° Southeast 517 595 34,900  Level FlightAware ADS-B
Wed 07:25:08 AM 45.3080 13.2590 130° Southeast 515 593 34,900  Level FlightAware ADS-B
Wed 07:25:44 AM 45.2580 13.3580 126° Southeast 515 593 34,900  Level FlightAware ADS-B
Wed 07:26:18 AM 45.2120 13.4520 125° Southeast 510 587 34,900  Level FlightAware ADS-B
Wed 07:27:04 AM 45.1520 13.5710 126° Southeast 519 597 34,900  Level FlightAware ADS-B
Wed 07:27:34 AM 45.1040 13.6610 127° Southeast 520 598 34,900  Level FlightAware ADS-B
Wed 07:28:20 AM 45.0390 13.7870 126° Southeast 518 596 34,900  Level FlightAware ADS-B
Wed 07:28:59 AM 44.9820 13.8940 127° Southeast 521 600 34,900 162 Level FlightAware ADS-B
Wed 07:29:34 AM 44.9310 13.9910 127° Southeast 527 606 35,100 676 Climbing FlightAware ADS-B
Wed 07:30:10 AM 44.8810 14.0880 126° Southeast 530 610 35,700 1,014 Climbing FlightAware ADS-B
Wed 07:30:45 AM 44.8310 14.1860 126° Southeast 531 611 36,300 1,026 Climbing FlightAware ADS-B
Wed 07:31:26 AM 44.7710 14.3000 127° Southeast 530 610 37,000 480 Climbing FlightAware ADS-B
Wed 07:32:00 AM 44.7230 14.3940 126° Southeast 529 609 36,900 -86 Descending FlightAware ADS-B
Wed 07:32:36 AM 44.6710 14.4930 126° Southeast 524 603 36,900  Level FlightAware ADS-B
Wed 07:33:11 AM 44.6210 14.5860 127° Southeast 523 602 36,900  Level FlightAware ADS-B
Wed 07:33:51 AM 44.5610 14.7000 126° Southeast 521 600 36,900 63 Level FlightAware ADS-B
Wed 07:34:46 AM 44.4840 14.8460 126° Southeast 518 596 37,000  Climbing FlightAware ADS-B
Wed 07:35:19 AM 44.4360 14.9370 126° Southeast 519 597 36,900  Descending FlightAware ADS-B
Wed 07:35:54 AM 44.3850 15.0340 126° Southeast 517 595 37,000 85 Climbing FlightAware ADS-B
Wed 07:36:30 AM 44.3400 15.1170 127° Southeast 518 596 37,000 -86 Level FlightAware ADS-B
Wed 07:37:04 AM 44.2850 15.2210 126° Southeast 518 596 36,900  Descending FlightAware ADS-B
Wed 07:37:40 AM 44.2290 15.3090 132° Southeast 509 586 37,000  Climbing FlightAware ADS-B
Wed 07:38:15 AM 44.1720 15.3980 132° Southeast 509 586 36,900 240 Descending FlightAware ADS-B
Wed 07:38:55 AM 44.1100 15.4960 131° Southeast 515 593 37,300 800 Climbing FlightAware ADS-B
Wed 07:39:30 AM 44.0540 15.5850 131° Southeast 520 598 37,900 1,029 Climbing FlightAware ADS-B
Wed 07:40:05 AM 44.0000 15.6740 130° Southeast 511 588 38,500 943 Climbing FlightAware ADS-B
Wed 07:40:40 AM 43.9470 15.7660 129° Southeast 508 585 39,000 343 Climbing FlightAware ADS-B
Wed 07:41:15 AM 43.8940 15.8510 131° Southeast 508 585 38,900 -91 Descending FlightAware ADS-B
Wed 07:41:46 AM 43.8510 15.9280 128° Southeast 510 587 38,900  Level FlightAware ADS-B
Wed 07:42:17 AM 43.8090 16.0000 129° Southeast 511 588 38,900  Level FlightAware ADS-B
Wed 07:42:55 AM 43.7450 16.1090 129° Southeast 509 586 38,900  Level FlightAware ADS-B
Wed 07:43:31 AM 43.6910 16.2030 128° Southeast 510 587 38,900  Level FlightAware ADS-B
Wed 07:44:07 AM 43.6390 16.2920 129° Southeast 509 586 38,900  Level FlightAware ADS-B
Wed 07:44:47 AM 43.5800 16.3960 128° Southeast 506 582 38,900 81 Level FlightAware ADS-B
Wed 07:45:21 AM 43.5350 16.4740 128° Southeast 500 575 39,000  Climbing FlightAware ADS-B
Wed 07:46:00 AM 43.4770 16.5750 128° Southeast 502 578 38,900 -87 Descending FlightAware ADS-B
Wed 07:46:30 AM 43.4330 16.6520 128° Southeast 503 579 38,900  Level FlightAware ADS-B
Wed 07:47:05 AM 43.3810 16.7400 129° Southeast 503 579 38,900  Level FlightAware ADS-B
Wed 07:47:45 AM 43.3260 16.8390 127° Southeast 503 579 38,900  Level FlightAware ADS-B
Wed 07:48:21 AM 43.2730 16.9300 129° Southeast 503 579 38,900  Level FlightAware ADS-B
Wed 07:48:50 AM 43.2300 17.0030 129° Southeast 504 580 38,900  Level FlightAware ADS-B
Wed 07:49:25 AM 43.1780 17.0940 128° Southeast 502 578 38,900  Level FlightAware ADS-B
Wed 07:50:05 AM 43.1190 17.1940 129° Southeast 500 575 38,900  Level FlightAware ADS-B
Wed 07:50:40 AM 43.0720 17.2740 129° Southeast 500 575 38,900  Level FlightAware ADS-B
Wed 07:51:10 AM 43.0240 17.3560 129° Southeast 499 574 38,900  Level FlightAware ADS-B
Wed 07:51:50 AM 42.9650 17.4520 130° Southeast 504 580 38,900  Level FlightAware ADS-B
Wed 07:52:25 AM 42.9180 17.5330 128° Southeast 501 577 38,900  Level FlightAware ADS-B
Wed 07:52:57 AM 42.8630 17.6230 130° Southeast 506 582 38,900  Level FlightAware ADS-B
Wed 07:53:33 AM 42.8100 17.7140 128° Southeast 504 580 38,900  Level FlightAware ADS-B
Wed 07:54:09 AM 42.7570 17.8030 129° Southeast 503 579 38,900  Level FlightAware ADS-B
Wed 07:54:41 AM 42.7120 17.8790 129° Southeast 502 578 38,900  Level FlightAware ADS-B
Wed 07:55:18 AM 42.6610 17.9650 129° Southeast 502 578 38,900  Level FlightAware ADS-B
Wed 07:55:52 AM 42.6180 18.0640 121° Southeast 517 595 38,900 91 Level FlightAware ADS-B
Wed 07:56:24 AM 42.5910 18.1540 112° Southeast 518 596 39,000  Climbing FlightAware ADS-B
Wed 07:57:01 AM 42.5510 18.2670 116° Southeast 507 583 38,900 -82 Descending FlightAware ADS-B
Wed 07:57:37 AM 42.4990 18.3530 129° Southeast 497 572 38,900  Level FlightAware ADS-B
Wed 07:58:13 AM 42.4400 18.4390 133° Southeast 494 568 38,900 83 Level FlightAware ADS-B
Wed 07:58:49 AM 42.3820 18.5140 136° Southeast 494 568 39,000  Climbing FlightAware ADS-B
Wed 07:59:25 AM 42.3220 18.5900 137° Southeast 494 568 38,900 -86 Descending FlightAware ADS-B
Wed 07:59:59 AM 42.2650 18.6620 137° Southeast 492 566 38,900  Level FlightAware ADS-B
Wed 08:00:35 AM 42.2040 18.7390 137° Southeast 493 567 38,900  Level FlightAware ADS-B
Wed 08:01:11 AM 42.1440 18.8140 137° Southeast 491 565 38,900  Level FlightAware ADS-B
Wed 08:01:43 AM 42.0850 18.8640 148° Southeast 478 550 38,900  Level FlightAware ADS-B
Wed 08:02:20 AM 42.0130 18.9130 153° Southeast 478 550 38,900  Level FlightAware ADS-B
Wed 08:02:55 AM 41.9420 18.9610 153° Southeast 479 551 38,900 80 Level FlightAware ADS-B
Wed 08:03:35 AM 41.8620 19.0160 153° Southeast 482 555 39,000  Climbing FlightAware ADS-B
Wed 08:04:13 AM 41.7860 19.0660 154° Southeast 482 555 38,900 -83 Descending FlightAware ADS-B
Wed 08:04:47 AM 41.7200 19.1100 154° Southeast 483 556 38,900  Level FlightAware ADS-B
Wed 08:05:23 AM 41.6480 19.1570 154° Southeast 481 554 38,900 88 Level FlightAware ADS-B
Wed 08:05:55 AM 41.5840 19.2000 153° Southeast 479 551 39,000 88 Climbing FlightAware ADS-B
Wed 08:06:31 AM 41.5110 19.2460 155° Southeast 472 543 39,000  Level FlightAware ADS-B
Wed 08:07:13 AM 41.4250 19.2930 158° South 469 540 39,000  Level FlightAware ADS-B
Wed 08:07:47 AM 41.3570 19.3260 160° South 468 539 39,000  Level FlightAware ADS-B
Wed 08:08:23 AM 41.2840 19.3620 160° South 467 537 39,000  Level FlightAware ADS-B
Wed 08:08:59 AM 41.2100 19.3940 162° South 464 534 39,000  Level FlightAware ADS-B
Wed 08:09:31 AM 41.1460 19.4180 164° South 464 534 39,000  Level FlightAware ADS-B
Wed 08:10:08 AM 41.0700 19.4460 164° South 465 535 39,000  Level FlightAware ADS-B
Wed 08:10:44 AM 40.9930 19.4720 166° South 464 534 39,000  Level FlightAware ADS-B
Wed 08:11:26 AM 40.9240 19.4930 167° South 466 536 39,000  Level FlightAware ADS-B
Wed 08:12:07 AM 40.8200 19.5260 166° South 467 537 39,000  Level FlightAware ADS-B
Wed 08:12:42 AM 40.7450 19.5520 165° South 470 541 39,000  Level FlightAware ADS-B
Wed 08:13:14 AM 40.6780 19.5740 166° South 469 540 39,000  Level FlightAware ADS-B
Wed 08:13:45 AM 40.6140 19.5960 165° South 467 537 39,000  Level FlightAware ADS-B
Wed 08:14:25 AM 40.5310 19.6300 163° South 465 535 39,000  Level FlightAware ADS-B
Wed 08:15:00 AM 40.4570 19.6590 163° South 465 535 39,000  Level FlightAware ADS-B
Wed 08:15:32 AM 40.3930 19.6840 163° South 465 535 39,000  Level FlightAware ADS-B
Wed 08:16:14 AM 40.3050 19.7200 163° South 467 537 39,000  Level FlightAware ADS-B
Wed 08:16:46 AM 40.2410 19.7520 159° South 472 543 39,000  Level FlightAware ADS-B
Wed 08:17:20 AM 40.1720 19.7890 158° South 474 545 39,000  Level FlightAware ADS-B
Wed 08:17:58 AM 40.0960 19.8350 155° Southeast 478 550 39,000  Level FlightAware ADS-B
Wed 08:18:32 AM 40.0280 19.8760 155° Southeast 481 554 39,000  Level FlightAware ADS-B
Wed 08:19:13 AM 39.9470 19.9250 155° Southeast 484 557 39,000  Level FlightAware ADS-B
Wed 08:19:46 AM 39.8760 19.9680 155° Southeast 485 558 39,000  Level FlightAware ADS-B
Wed 08:20:20 AM 39.8070 20.0120 154° Southeast 491 565 39,000  Level FlightAware ADS-B
Wed 08:20:56 AM 39.7390 20.0690 147° Southeast 503 579 39,000  Level FlightAware ADS-B
Wed 08:21:14 AM 39.7090 20.1110 133° Southeast 514 592 39,000  Level FlightAware ADS-B
Wed 08:21:46 AM 39.6670 20.1960 123° Southeast 527 606 39,000  Level FlightAware ADS-B
Wed 08:22:30 AM 39.6150 20.3140 120° Southeast 531 611 39,000  Level FlightAware ADS-B
Wed 08:23:06 AM 39.5690 20.4170 120° Southeast 533 613 39,000  Level FlightAware ADS-B
Wed 08:23:40 AM 39.5290 20.5050 120° Southeast 535 616 39,000  Level FlightAware ADS-B
Wed 08:24:15 AM 39.4860 20.6050 119° Southeast 537 618 39,000  Level FlightAware ADS-B
Wed 08:24:51 AM 39.4410 20.7030 121° Southeast 539 620 39,000  Level FlightAware ADS-B
Wed 08:25:27 AM 39.3940 20.8060 121° Southeast 541 623 39,000  Level FlightAware ADS-B
Wed 08:25:58 AM 39.3540 20.8950 120° Southeast 543 625 39,000  Level FlightAware ADS-B
Wed 08:26:34 AM 39.3080 20.9960 120° Southeast 544 626 39,000  Level FlightAware ADS-B
Wed 08:27:12 AM 39.2600 21.0990 121° Southeast 544 626 39,000  Level FlightAware ADS-B
Wed 08:27:42 AM 39.2200 21.1860 121° Southeast 544 626 39,000  Level FlightAware ADS-B
Wed 08:28:20 AM 39.1730 21.2890 120° Southeast 546 628 39,000  Level FlightAware ADS-B
Wed 08:28:54 AM 39.1290 21.3870 120° Southeast 546 628 39,000  Level FlightAware ADS-B
Wed 08:29:30 AM 39.0820 21.4880 121° Southeast 544 626 39,000  Level FlightAware ADS-B
Wed 08:30:04 AM 39.0400 21.5790 121° Southeast 543 625 39,000  Level FlightAware ADS-B
Wed 08:30:40 AM 38.9920 21.6810 121° Southeast 543 625 39,000  Level FlightAware ADS-B
Wed 08:31:12 AM 38.9500 21.7700 121° Southeast 543 625 39,000  Level FlightAware ADS-B
Wed 08:31:50 AM 38.9020 21.8720 121° Southeast 543 625 39,000  Level FlightAware ADS-B
Wed 08:32:25 AM 38.8570 21.9690 121° Southeast 543 625 39,000  Level FlightAware ADS-B
Wed 08:32:55 AM 38.8170 22.0540 121° Southeast 541 623 39,000  Level FlightAware ADS-B
Wed 08:33:35 AM 38.7650 22.1640 121° Southeast 539 620 39,000  Level FlightAware ADS-B
Wed 08:34:11 AM 38.7190 22.2620 121° Southeast 540 621 39,000  Level FlightAware ADS-B
Wed 08:34:46 AM 38.6740 22.3550 122° Southeast 540 621 39,000  Level FlightAware ADS-B
Wed 08:35:19 AM 38.6300 22.4480 121° Southeast 539 620 39,000  Level FlightAware ADS-B
Wed 08:35:55 AM 38.5840 22.5450 121° Southeast 536 617 39,000  Level FlightAware ADS-B
Wed 08:36:32 AM 38.5370 22.6430 121° Southeast 536 617 39,000  Level FlightAware ADS-B
Wed 08:37:03 AM 38.4960 22.7290 121° Southeast 534 615 39,000  Level FlightAware ADS-B
Wed 08:37:39 AM 38.4520 22.8200 122° Southeast 531 611 39,000  Level FlightAware ADS-B
Wed 08:38:13 AM 38.4070 22.9110 122° Southeast 530 610 39,000  Level FlightAware ADS-B
Wed 08:38:49 AM 38.3600 23.0080 122° Southeast 530 610 39,000  Level FlightAware ADS-B
Wed 08:39:19 AM 38.3210 23.0900 121° Southeast 529 609 39,000  Level FlightAware ADS-B
Wed 08:39:59 AM 38.2710 23.1910 122° Southeast 527 606 39,000  Level FlightAware ADS-B
Wed 08:40:32 AM 38.2250 23.2870 121° Southeast 527 606 39,000  Level FlightAware ADS-B
Wed 08:41:12 AM 38.1740 23.3900 122° Southeast 524 603 39,000  Level FlightAware ADS-B
Wed 08:41:43 AM 38.1340 23.4720 122° Southeast 526 605 39,000  Level FlightAware ADS-B
Wed 08:42:19 AM 38.0870 23.5670 122° Southeast 531 611 39,000  Level FlightAware ADS-B
Wed 08:42:53 AM 38.0420 23.6570 122° Southeast 530 610 39,000  Level FlightAware ADS-B
Wed 08:43:27 AM 37.9970 23.7470 122° Southeast 534 615 39,000  Level FlightAware ADS-B
Wed 08:44:10 AM 37.9430 23.8570 122° Southeast 539 620 39,000  Level FlightAware ADS-B
Wed 08:44:42 AM 37.9010 23.9420 122° Southeast 540 621 39,000  Level FlightAware ADS-B
Wed 08:45:23 AM 37.8450 24.0540 122° Southeast 540 621 39,000  Level FlightAware ADS-B
Wed 08:45:58 AM 37.7950 24.1530 123° Southeast 539 620 39,000  Level FlightAware ADS-B
Wed 08:46:29 AM 37.7550 24.2330 122° Southeast 540 621 39,000  Level FlightAware ADS-B
Wed 08:47:08 AM 37.7010 24.3390 123° Southeast 541 623 39,000  Level FlightAware ADS-B
Wed 08:47:40 AM 37.6580 24.4240 123° Southeast 540 621 39,000  Level FlightAware ADS-B
Wed 08:48:16 AM 37.6100 24.5190 123° Southeast 540 621 39,000  Level FlightAware ADS-B
Wed 08:48:54 AM 37.5590 24.6170 123° Southeast 540 621 39,000  Level FlightAware ADS-B
Wed 08:49:24 AM 37.5170 24.6990 123° Southeast 539 620 39,000  Level FlightAware ADS-B
Wed 08:49:58 AM 37.4720 24.7860 123° Southeast 539 620 39,000  Level FlightAware ADS-B
Wed 08:50:42 AM 37.4120 24.9050 122° Southeast 541 623 39,000  Level FlightAware ADS-B
Wed 08:51:20 AM 37.3610 25.0060 122° Southeast 542 624 39,000  Level FlightAware ADS-B
Wed 08:51:52 AM 37.3170 25.0880 124° Southeast 542 624 39,000  Level FlightAware ADS-B
Wed 08:52:28 AM 37.2670 25.1850 123° Southeast 542 624 39,000  Level FlightAware ADS-B
Wed 08:53:02 AM 37.2210 25.2750 123° Southeast 542 624 39,000  Level FlightAware ADS-B
Wed 08:53:38 AM 37.1720 25.3700 123° Southeast 541 623 39,000  Level FlightAware ADS-B
Wed 08:54:14 AM 37.1220 25.4640 124° Southeast 541 623 39,000  Level FlightAware ADS-B
Wed 08:54:49 AM 37.0750 25.5550 123° Southeast 539 620 39,000  Level FlightAware ADS-B
Wed 08:55:26 AM 37.0240 25.6520 123° Southeast 539 620 39,000  Level FlightAware ADS-B
Wed 08:55:59 AM 36.9800 25.7330 124° Southeast 538 619 39,000  Level FlightAware ADS-B
Wed 08:56:30 AM 36.9360 25.8180 123° Southeast 537 618 39,000  Level FlightAware ADS-B
Wed 08:57:10 AM 36.8810 25.9210 124° Southeast 535 616 39,000  Level FlightAware ADS-B
Wed 08:57:42 AM 36.8370 26.0040 124° Southeast 534 615 39,000  Level FlightAware ADS-B
Wed 08:58:20 AM 36.7850 26.1010 124° Southeast 533 613 39,000  Level FlightAware ADS-B
Wed 08:58:55 AM 36.7390 26.1880 123° Southeast 531 611 39,000  Level FlightAware ADS-B
Wed 08:59:32 AM 36.6870 26.2850 124° Southeast 530 610 39,000  Level FlightAware ADS-B
Wed 09:00:08 AM 36.6380 26.3760 124° Southeast 530 610 39,000  Level FlightAware ADS-B
Wed 09:00:48 AM 36.5830 26.4780 124° Southeast 530 610 39,000  Level FlightAware ADS-B
Wed 09:01:22 AM 36.5370 26.5640 124° Southeast 529 609 39,000  Level FlightAware ADS-B
Wed 09:01:58 AM 36.4880 26.6540 124° Southeast 528 608 39,000  Level FlightAware ADS-B
Wed 09:02:30 AM 36.4440 26.7350 124° Southeast 528 608 39,000  Level FlightAware ADS-B
Wed 09:03:05 AM 36.3970 26.8200 124° Southeast 528 608 39,000  Level FlightAware ADS-B
Wed 09:03:42 AM 36.3450 26.9160 124° Southeast 529 609 39,000  Level FlightAware ADS-B
Wed 09:04:14 AM 36.3030 26.9940 124° Southeast 530 610 39,000  Level FlightAware ADS-B
Wed 09:04:57 AM 36.2500 27.0900 124° Southeast 530 610 39,000  Level FlightAware ADS-B
Wed 09:05:33 AM 36.2080 27.1680 124° Southeast 530 610 39,000  Level FlightAware ADS-B
Wed 09:06:03 AM 36.1520 27.2680 125° Southeast 531 611 39,000  Level FlightAware ADS-B
Wed 09:06:42 AM 36.1070 27.3510 124° Southeast 531 611 39,000  Level FlightAware ADS-B
Wed 09:07:18 AM 36.0650 27.4280 124° Southeast 531 611 39,000  Level FlightAware ADS-B
Wed 09:07:55 AM 36.0210 27.5080 124° Southeast 531 611 39,000  Level FlightAware ADS-B
Wed 09:08:31 AM 35.9790 27.5850 124° Southeast 531 611 39,000  Level FlightAware ADS-B
Wed 09:09:10 AM 35.9340 27.6680 124° Southeast 531 611 39,000  Level FlightAware ADS-B
Wed 09:09:47 AM 35.8910 27.7470 124° Southeast 531 611 39,000  Level FlightAware ADS-B
Wed 09:10:23 AM 35.8480 27.8240 125° Southeast 531 611 39,000  Level FlightAware ADS-B
Wed 09:11:00 AM 35.8050 27.9030 124° Southeast 531 611 39,000  Level FlightAware ADS-B
Wed 09:11:47 AM 35.6730 28.1240 126° Southeast 526 605 39,000  Level FlightAware ADS-B
Wed 09:12:25 AM 35.6210 28.2170 125° Southeast 526 605 39,000  Level FlightAware ADS-B
Wed 09:12:59 AM 35.5730 28.3010 125° Southeast 526 605 39,000  Level FlightAware ADS-B
Wed 09:13:33 AM 35.5260 28.3840 125° Southeast 526 605 39,000  Level FlightAware ADS-B
Wed 09:14:07 AM 35.4780 28.4670 125° Southeast 526 605 39,000  Level FlightAware ADS-B
Wed 09:14:45 AM 35.4250 28.5600 125° Southeast 527 606 39,000  Level FlightAware ADS-B
Wed 09:15:17 AM 35.3820 28.6360 125° Southeast 527 606 39,000  Level FlightAware ADS-B
Wed 09:15:51 AM 35.3330 28.7210 125° Southeast 526 605 39,000  Level FlightAware ADS-B
Wed 09:16:29 AM 35.2790 28.8140 125° Southeast 525 604 39,000  Level FlightAware ADS-B
Wed 09:16:59 AM 35.2380 28.8860 125° Southeast 526 605 39,000  Level FlightAware ADS-B
Wed 09:17:36 AM 35.1940 28.9630 125° Southeast 526 605 39,000  Level FlightAware ADS-B
Wed 09:18:12 AM 35.1510 29.0380 125° Southeast 526 605 39,000  Level FlightAware ADS-B
Wed 09:18:48 AM 35.1090 29.1120 125° Southeast 526 605 39,000  Level FlightAware ADS-B
Wed 09:19:24 AM 35.0660 29.1870 125° Southeast 526 605 39,000  Level FlightAware ADS-B
Wed 09:19:41 AM 35.0180 29.2640 127° Southeast 817 940 39,000  Level FlightAware ADS-B
Wed 09:20:48 AM 34.9210 29.4300 125° Southeast 39,000  Level FlightAware ADS-B
Wed 09:21:19 AM 34.8750 29.5070 126° Southeast 526 605 39,000  Level FlightAware ADS-B
Wed 09:21:54 AM 34.8220 29.5990 125° Southeast 525 604 39,000  Level FlightAware ADS-B
Wed 09:22:35 AM 34.7640 29.6940 127° Southeast 524 603 39,000  Level FlightAware ADS-B
Wed 09:23:11 AM 34.7160 29.7760 125° Southeast 524 603 39,000  Level FlightAware ADS-B
Wed 09:23:46 AM 34.6640 29.8640 126° Southeast 524 603 39,000  Level FlightAware ADS-B
Wed 09:24:23 AM 34.6190 29.9410 125° Southeast 524 603 39,000  Level FlightAware ADS-B
Wed 09:24:59 AM 34.5770 30.0150 125° Southeast 524 603 39,000  Level FlightAware ADS-B
Wed 09:25:31 AM 34.5220 30.1250 121° Southeast 527 606 39,000  Level FlightAware ADS-B
Wed 09:26:07 AM 34.4800 30.2150 119° Southeast 528 608 39,000  Level FlightAware ADS-B
Wed 09:26:42 AM 34.4400 30.2990 120° Southeast 523 602 39,000  Level FlightAware ADS-B
Wed 09:27:17 AM 34.3940 30.3940 120° Southeast 522 601 39,000  Level FlightAware ADS-B
Wed 09:27:51 AM 34.3530 30.4800 120° Southeast 522 601 39,000  Level FlightAware ADS-B
Wed 09:28:27 AM 34.3090 30.5720 120° Southeast 517 595 39,000  Level FlightAware ADS-B
Wed 09:29:02 AM 34.2660 30.6600 121° Southeast 507 583 39,000  Level FlightAware ADS-B
Wed 09:29:43 AM 34.2220 30.7500 121° Southeast 498 573 39,000  Level FlightAware ADS-B
Wed 09:30:22 AM 34.1720 30.8510 121° Southeast 495 570 39,000  Level FlightAware ADS-B
Wed 09:30:53 AM 34.1360 30.9260 120° Southeast 495 570 39,000  Level FlightAware ADS-B
Wed 09:31:32 AM 34.0930 31.0140 121° Southeast 494 568 39,000  Level FlightAware ADS-B
Wed 09:32:08 AM 34.0490 31.1030 121° Southeast 492 566 39,000  Level FlightAware ADS-B
Wed 09:32:38 AM 34.0130 31.1790 120° Southeast 491 565 39,000  Level FlightAware ADS-B
Wed 09:33:14 AM 33.9710 31.2620 121° Southeast 490 564 39,000  Level FlightAware ADS-B
Wed 09:33:48 AM 33.9300 31.3450 121° Southeast 490 564 39,000  Level FlightAware ADS-B
Wed 09:34:30 AM 33.8840 31.4390 120° Southeast 490 564 39,000  Level FlightAware ADS-B
Wed 09:35:08 AM 33.8370 31.5340 121° Southeast 490 564 39,000  Level FlightAware ADS-B
Wed 09:35:39 AM 33.8020 31.6050 121° Southeast 489 563 39,000  Level FlightAware ADS-B
Wed 09:36:18 AM 33.7560 31.6960 121° Southeast 488 562 39,000  Level FlightAware ADS-B
Wed 09:36:59 AM 33.7080 31.7920 121° Southeast 488 562 39,000  Level FlightAware ADS-B
Wed 09:37:33 AM 33.6670 31.8740 121° Southeast 487 560 39,000  Level FlightAware ADS-B
Wed 09:38:05 AM 33.6320 31.9440 121° Southeast 485 558 39,000 -254 Level FlightAware ADS-B
Wed 09:38:44 AM 33.5870 32.0340 121° Southeast 481 554 38,700 -857 Descending FlightAware ADS-B
Wed 09:39:15 AM 33.5530 32.1010 121° Southeast 476 548 38,000 -1,437 Descending FlightAware ADS-B
Wed 09:39:55 AM 33.5030 32.1990 121° Southeast 475 547 37,000 -1,371 Descending FlightAware ADS-B
Wed 09:40:25 AM 33.4700 32.2630 122° Southeast 474 545 36,400 -1,186 Descending FlightAware ADS-B
Wed 09:41:21 AM 33.4100 32.3840 121° Southeast 468 539 35,300 -1,186 Descending FlightAware ADS-B
Wed 09:41:51 AM 33.3760 32.4500 122° Southeast 465 535 34,700 -1,215 Descending FlightAware ADS-B
Wed 09:42:40 AM 33.3190 32.5620 121° Southeast 462 532 33,700 -1,143 Descending FlightAware ADS-B
Wed 09:43:15 AM 33.2820 32.6350 121° Southeast 460 529 33,100 -1,029 Descending FlightAware ADS-B
Wed 09:43:50 AM 33.2450 32.7070 122° Southeast 458 527 32,500 -1,063 Descending FlightAware ADS-B
Wed 09:44:34 AM 33.1910 32.8110 122° Southeast 451 519 31,700 -1,000 Descending FlightAware ADS-B
Wed 09:45:08 AM 33.1550 32.8810 122° Southeast 446 513 31,200 -971 Descending FlightAware ADS-B
Wed 09:45:42 AM 33.1170 32.9540 122° Southeast 438 504 30,600 -1,500 Descending FlightAware ADS-B
Wed 09:46:20 AM 33.0780 33.0320 121° Southeast 434 499 29,400 -1,865 Descending FlightAware ADS-B
Wed 09:46:56 AM 33.0390 33.1050 122° Southeast 429 494 28,300 -1,826 Descending FlightAware ADS-B
Wed 09:47:29 AM 33.0070 33.1670 122° Southeast 425 489 27,300 -1,853 Descending FlightAware ADS-B
Wed 09:48:04 AM 32.9700 33.2380 122° Southeast 417 480 26,200 -1,846 Descending FlightAware ADS-B
Wed 09:48:34 AM 32.9390 33.3000 121° Southeast 410 472 25,300 -1,784 Descending FlightAware ADS-B
Wed 09:49:18 AM 32.8950 33.3830 122° Southeast 398 458 24,000 -1,683 Descending FlightAware ADS-B
Wed 09:49:56 AM 32.8600 33.4510 121° Southeast 389 448 23,000 -1,667 Descending FlightAware ADS-B
Wed 09:50:30 AM 32.8270 33.5140 122° Southeast 381 438 22,000 -1,629 Descending FlightAware ADS-B
Wed 09:51:06 AM 32.7950 33.5730 123° Southeast 370 426 21,100 -1,543 Descending FlightAware ADS-B
Wed 09:51:40 AM 32.7650 33.6320 121° Southeast 362 417 20,200 -1,583 Descending FlightAware ADS-B
Wed 09:52:18 AM 32.7270 33.6940 126° Southeast 349 402 19,200 -1,560 Descending FlightAware ADS-B
Wed 09:52:30 AM 32.7120 33.7070 144° Southeast 345 397 18,900 -1,375 Descending FlightAware ADS-B
Wed 09:53:06 AM 32.6610 33.7380 153° Southeast 333 383 18,100 -1,241 Descending FlightAware ADS-B
Wed 09:53:28 AM 32.6350 33.7600 145° Southeast 323 372 17,700 -1,227 Descending FlightAware ADS-B
Wed 09:53:50 AM 32.6160 33.7920 125° Southeast 317 365 17,200 -1,778 Descending FlightAware ADS-B
Wed 09:54:22 AM 32.5970 33.8440 113° Southeast 330 380 16,100 -2,206 Descending FlightAware ADS-B
Wed 09:54:58 AM 32.5760 33.9040 113° Southeast 345 397 14,700 -2,400 Descending FlightAware ADS-B
Wed 09:55:32 AM 32.5550 33.9640 113° Southeast 350 403 13,300 -2,379 Descending FlightAware ADS-B
Wed 09:55:56 AM 32.5400 34.0070 112° Southeast 347 399 12,400 -2,323 Descending FlightAware ADS-B
Wed 09:56:34 AM 32.5160 34.0740 113° Southeast 334 384 10,900 -1,946 Descending FlightAware ADS-B
Wed 09:57:10 AM 32.4940 34.1340 113° Southeast 321 369 10,000 -1,091 Descending FlightAware ADS-B
Wed 09:57:29 AM 32.4840 34.1580 116° Southeast 309 356 9,900 -529 Descending FlightAware ADS-B
Wed 09:57:44 AM 32.4690 34.1800 129° Southeast 296 341 9,700 -973 Descending FlightAware ADS-B
Wed 09:58:06 AM 32.4480 34.2050 135° Southeast 288 331 9,300 -1,200 Descending FlightAware ADS-B
Wed 09:58:44 AM 32.4120 34.2460 136° Southeast 285 328 8,500 -667 Descending FlightAware ADS-B
Wed 09:59:18 AM 32.3860 34.2760 136° Southeast 285 328 8,500 -1,200 Level FlightAware ADS-B
Wed 09:59:29 AM 32.3730 34.2910 136° Southeast 281 323 7,600 -2,400 Descending FlightAware ADS-B
Wed 09:59:53 AM 32.3480 34.3210 135° Southeast 279 321 7,100 -1,350 Descending FlightAware ADS-B
Wed 10:00:09 AM 32.3340 34.3390 133° Southeast 277 319 6,700 -900 Descending FlightAware ADS-B
Wed 10:00:33 AM 32.3110 34.3650 136° Southeast 286 329 6,500 -955 Descending FlightAware ADS-B
Wed 10:00:53 AM 32.2930 34.3870 134° Southeast 289 333 6,000 -1,385 Descending FlightAware ADS-B
Wed 10:01:25 AM 32.2650 34.4190 136° Southeast 287 330 5,300 -941 Descending FlightAware ADS-B
Wed 10:01:44 AM 32.2440 34.4430 136° Southeast 286 329 5,200 -154 Descending FlightAware ADS-B
Wed 10:02:04 AM 32.2310 34.4600 132° Southeast 283 326 5,200  Level FlightAware ADS-B
Wed 10:02:20 AM 32.2170 34.4850 123° Southeast 283 326 5,200  Level FlightAware ADS-B
Wed 10:02:44 AM 32.2010 34.5150 122° Southeast 283 326 5,200  Level FlightAware ADS-B
Wed 10:03:04 AM 32.1890 34.5400 120° Southeast 283 326 5,200  Level FlightAware ADS-B
Wed 10:03:33 AM 32.1670 34.5830 121° Southeast 283 326 5,200  Level FlightAware ADS-B
Wed 10:03:51 AM 32.1560 34.6040 122° Southeast 282 325 5,200  Level FlightAware ADS-B
Wed 10:04:09 AM 32.1420 34.6310 121° Southeast 276 318 5,200  Level FlightAware ADS-B
Wed 10:04:29 AM 32.1280 34.6530 127° Southeast 253 291 5,200  Level FlightAware ADS-B
Wed 10:04:49 AM 32.1160 34.6760 122° Southeast 248 285 5,200  Level FlightAware ADS-B
Wed 10:05:08 AM 32.1040 34.6970 124° Southeast 248 285 5,200  Level FlightAware ADS-B
Wed 10:05:45 AM 32.0830 34.7360 122° Southeast 247 284 5,200  Level FlightAware ADS-B
Wed 10:06:09 AM 32.0660 34.7650 125° Southeast 237 273 5,200 -136 Level FlightAware ADS-B
Wed 10:06:29 AM 32.0520 34.7840 131° Southeast 226 260 5,100 -387 Descending FlightAware ADS-B
Wed 10:06:40 AM 32.0440 34.7940 133° Southeast 216 249 5,000 -400 Descending FlightAware ADS-B
Wed 10:06:59 AM 32.0330 34.8060 137° Southeast 212 244 4,900 -407 Descending FlightAware ADS-B
Wed 10:07:39 AM 32.0040 34.8390 136° Southeast 212 244 4,600 -700 Descending FlightAware ADS-B
Wed 10:07:59 AM 31.9920 34.8530 135° Southeast 206 237 4,200 -500 Descending FlightAware ADS-B
Wed 10:08:27 AM 31.9750 34.8710 138° Southeast 206 237 4,200 -1,500 Level FlightAware ADS-B
Wed 10:08:39 AM 31.9920 34.8530 318° Northwest 209 241 3,200 -2,640 Descending FlightAware ADS-B
Wed 10:08:52 AM 31.9750 34.9020 112° Southeast 185 213 3,100 -828 Descending FlightAware ADS-B
Wed 10:09:08 AM 31.9790 34.9220 77° East 180 207 2,800 -1,000 Descending FlightAware ADS-B
Wed 10:09:40 AM 31.9850 34.9490 75° East 175 201 2,300 -933 Descending FlightAware ADS-B
Wed 10:09:53 AM 31.9910 34.9590 55° Northeast 171 197 2,100 -947 Descending FlightAware ADS-B
Wed 10:09:59 AM 31.9950 34.9620 32° Northeast 169 194 2,000 -750 Descending FlightAware ADS-B
Wed 10:10:09 AM 32.0020 34.9640 14° North 168 193 1,900 -1,000 Descending FlightAware ADS-B
Wed 10:10:29 AM 32.0180 34.9600 348° North 160 184 1,500 -522 Descending FlightAware ADS-B
Wed 10:10:55 AM 32.0330 34.9540 341° North 160 184 1,500  Level FlightAware ADS-B
Wed 10:13:00 AM 32.0095 34.8769 250° West  Level Estimated

Login

Don't have an account? Register now (free) for customized features, flight alerts, and more!